<?xml version="1.0" encoding="UTF-8" standalone="no" ?>
<gpx xmlns="http://www.topografix.com/GPX/1/1" xmlns:xsi="http://www.w3.org/2001/XMLSchema-instance" xsi:schemaLocation="http://www.topografix.com/GPX/1/1 http://www.topografix.com/GPX/1/1/gpx.xsd" version="1.1" creator="VisuGPX - https://www.visugpx.com">
  <metadata>
    <name>Pic de Bouneu - 2726 m</name>
    <desc><![CDATA[Randonnée à skis au Pic de Bouneu 2726 m au départ du Maillet.]]></desc>
  </metadata>
  <trk>
    <name><![CDATA[2017-04-28 14:03:02]]></name>
    <trkseg>
      <trkpt lat="42.7345" lon="0.08977">
        <ele>1844.66</ele>
        <time>2017-04-28T06:59:31Z</time>
      </trkpt>
      <trkpt lat="42.7344" lon="0.08982">
        <ele>1834.93</ele>
        <time>2017-04-28T06:59:54Z</time>
      </trkpt>
      <trkpt lat="42.73438" lon="0.08988">
        <ele>1831.09</ele>
        <time>2017-04-28T07:00:12Z</time>
      </trkpt>
      <trkpt lat="42.73435" lon="0.08988">
        <ele>1828.58</ele>
        <time>2017-04-28T07:00:36Z</time>
      </trkpt>
      <trkpt lat="42.73428" lon="0.08993">
        <ele>1828.11</ele>
        <time>2017-04-28T07:00:53Z</time>
      </trkpt>
      <trkpt lat="42.73421" lon="0.08992">
        <ele>1827.31</ele>
        <time>2017-04-28T07:01:09Z</time>
      </trkpt>
      <trkpt lat="42.73412" lon="0.08988">
        <ele>1826.63</ele>
        <time>2017-04-28T07:01:17Z</time>
      </trkpt>
      <trkpt lat="42.73396" lon="0.08982">
        <ele>1825.51</ele>
        <time>2017-04-28T07:01:36Z</time>
      </trkpt>
      <trkpt lat="42.73381" lon="0.08966">
        <ele>1827.87</ele>
        <time>2017-04-28T07:01:54Z</time>
      </trkpt>
      <trkpt lat="42.73371" lon="0.0896">
        <ele>1830.51</ele>
        <time>2017-04-28T07:02:07Z</time>
      </trkpt>
      <trkpt lat="42.73364" lon="0.08952">
        <ele>1830.58</ele>
        <time>2017-04-28T07:02:21Z</time>
      </trkpt>
      <trkpt lat="42.73362" lon="0.08945">
        <ele>1832.84</ele>
        <time>2017-04-28T07:02:26Z</time>
      </trkpt>
      <trkpt lat="42.73351" lon="0.08922">
        <ele>1838.97</ele>
        <time>2017-04-28T07:02:42Z</time>
      </trkpt>
      <trkpt lat="42.73339" lon="0.08912">
        <ele>1843.26</ele>
        <time>2017-04-28T07:02:57Z</time>
      </trkpt>
      <trkpt lat="42.73327" lon="0.08901">
        <ele>1849.5</ele>
        <time>2017-04-28T07:03:13Z</time>
      </trkpt>
      <trkpt lat="42.73316" lon="0.08887">
        <ele>1854.32</ele>
        <time>2017-04-28T07:03:29Z</time>
      </trkpt>
      <trkpt lat="42.73299" lon="0.0888">
        <ele>1859</ele>
        <time>2017-04-28T07:03:44Z</time>
      </trkpt>
      <trkpt lat="42.73279" lon="0.08874">
        <ele>1862.76</ele>
        <time>2017-04-28T07:04:04Z</time>
      </trkpt>
      <trkpt lat="42.73264" lon="0.08875">
        <ele>1861.65</ele>
        <time>2017-04-28T07:04:18Z</time>
      </trkpt>
      <trkpt lat="42.7325" lon="0.08858">
        <ele>1866.39</ele>
        <time>2017-04-28T07:04:32Z</time>
      </trkpt>
      <trkpt lat="42.73237" lon="0.08842">
        <ele>1873.17</ele>
        <time>2017-04-28T07:04:47Z</time>
      </trkpt>
      <trkpt lat="42.73234" lon="0.08843">
        <ele>1873.04</ele>
        <time>2017-04-28T07:04:49Z</time>
      </trkpt>
      <trkpt lat="42.73229" lon="0.0884">
        <ele>1874.82</ele>
        <time>2017-04-28T07:04:53Z</time>
      </trkpt>
      <trkpt lat="42.73224" lon="0.08813">
        <ele>1881.46</ele>
        <time>2017-04-28T07:05:09Z</time>
      </trkpt>
      <trkpt lat="42.73222" lon="0.08807">
        <ele>1880.05</ele>
        <time>2017-04-28T07:05:13Z</time>
      </trkpt>
      <trkpt lat="42.73225" lon="0.08802">
        <ele>1876.72</ele>
        <time>2017-04-28T07:05:27Z</time>
      </trkpt>
      <trkpt lat="42.73227" lon="0.08793">
        <ele>1873.89</ele>
        <time>2017-04-28T07:05:50Z</time>
      </trkpt>
      <trkpt lat="42.73206" lon="0.08792">
        <ele>1870.78</ele>
        <time>2017-04-28T07:06:05Z</time>
      </trkpt>
      <trkpt lat="42.73191" lon="0.08791">
        <ele>1870.61</ele>
        <time>2017-04-28T07:06:15Z</time>
      </trkpt>
      <trkpt lat="42.73181" lon="0.0879">
        <ele>1870.97</ele>
        <time>2017-04-28T07:06:23Z</time>
      </trkpt>
      <trkpt lat="42.73177" lon="0.08791">
        <ele>1871.41</ele>
        <time>2017-04-28T07:06:26Z</time>
      </trkpt>
      <trkpt lat="42.73165" lon="0.08778">
        <ele>1874.95</ele>
        <time>2017-04-28T07:06:39Z</time>
      </trkpt>
      <trkpt lat="42.7316" lon="0.08774">
        <ele>1875.92</ele>
        <time>2017-04-28T07:06:44Z</time>
      </trkpt>
      <trkpt lat="42.73154" lon="0.08767">
        <ele>1877.23</ele>
        <time>2017-04-28T07:06:51Z</time>
      </trkpt>
      <trkpt lat="42.7315" lon="0.0875">
        <ele>1880.76</ele>
        <time>2017-04-28T07:07:04Z</time>
      </trkpt>
      <trkpt lat="42.73134" lon="0.08728">
        <ele>1885.07</ele>
        <time>2017-04-28T07:07:22Z</time>
      </trkpt>
      <trkpt lat="42.73128" lon="0.08721">
        <ele>1884.51</ele>
        <time>2017-04-28T07:07:28Z</time>
      </trkpt>
      <trkpt lat="42.73116" lon="0.08717">
        <ele>1883.91</ele>
        <time>2017-04-28T07:07:42Z</time>
      </trkpt>
      <trkpt lat="42.73104" lon="0.0872">
        <ele>1883.32</ele>
        <time>2017-04-28T07:07:53Z</time>
      </trkpt>
      <trkpt lat="42.73088" lon="0.08715">
        <ele>1885.12</ele>
        <time>2017-04-28T07:08:08Z</time>
      </trkpt>
      <trkpt lat="42.7308" lon="0.08709">
        <ele>1888.35</ele>
        <time>2017-04-28T07:08:17Z</time>
      </trkpt>
      <trkpt lat="42.73068" lon="0.08703">
        <ele>1888.89</ele>
        <time>2017-04-28T07:08:31Z</time>
      </trkpt>
      <trkpt lat="42.7307" lon="0.08695">
        <ele>1890.7</ele>
        <time>2017-04-28T07:08:44Z</time>
      </trkpt>
      <trkpt lat="42.7307" lon="0.08695">
        <ele>1892.35</ele>
        <time>2017-04-28T07:09:08Z</time>
      </trkpt>
      <trkpt lat="42.7307" lon="0.08701">
        <ele>1889.39</ele>
        <time>2017-04-28T07:09:38Z</time>
      </trkpt>
      <trkpt lat="42.73068" lon="0.08702">
        <ele>1887.9</ele>
        <time>2017-04-28T07:10:04Z</time>
      </trkpt>
      <trkpt lat="42.73067" lon="0.08702">
        <ele>1887.42</ele>
        <time>2017-04-28T07:10:22Z</time>
      </trkpt>
      <trkpt lat="42.73067" lon="0.08702">
        <ele>1886.99</ele>
        <time>2017-04-28T07:10:49Z</time>
      </trkpt>
      <trkpt lat="42.73068" lon="0.08703">
        <ele>1888.29</ele>
        <time>2017-04-28T07:11:34Z</time>
      </trkpt>
      <trkpt lat="42.73068" lon="0.08701">
        <ele>1887</ele>
        <time>2017-04-28T07:12:11Z</time>
      </trkpt>
      <trkpt lat="42.73068" lon="0.08704">
        <ele>1888.27</ele>
        <time>2017-04-28T07:12:37Z</time>
      </trkpt>
      <trkpt lat="42.73068" lon="0.08706">
        <ele>1887.86</ele>
        <time>2017-04-28T07:13:03Z</time>
      </trkpt>
      <trkpt lat="42.73068" lon="0.08708">
        <ele>1888.42</ele>
        <time>2017-04-28T07:13:30Z</time>
      </trkpt>
      <trkpt lat="42.73068" lon="0.08707">
        <ele>1889.05</ele>
        <time>2017-04-28T07:14:02Z</time>
      </trkpt>
      <trkpt lat="42.73069" lon="0.08703">
        <ele>1889.11</ele>
        <time>2017-04-28T07:14:38Z</time>
      </trkpt>
      <trkpt lat="42.73069" lon="0.08703">
        <ele>1888.4</ele>
        <time>2017-04-28T07:15:00Z</time>
      </trkpt>
      <trkpt lat="42.7307" lon="0.08706">
        <ele>1888.45</ele>
        <time>2017-04-28T07:15:23Z</time>
      </trkpt>
      <trkpt lat="42.73071" lon="0.08705">
        <ele>1888.11</ele>
        <time>2017-04-28T07:15:50Z</time>
      </trkpt>
      <trkpt lat="42.73068" lon="0.08701">
        <ele>1887.57</ele>
        <time>2017-04-28T07:16:18Z</time>
      </trkpt>
      <trkpt lat="42.73067" lon="0.08696">
        <ele>1888.36</ele>
        <time>2017-04-28T07:16:41Z</time>
      </trkpt>
      <trkpt lat="42.73067" lon="0.08696">
        <ele>1888.14</ele>
        <time>2017-04-28T07:17:22Z</time>
      </trkpt>
      <trkpt lat="42.73067" lon="0.08697">
        <ele>1888.22</ele>
        <time>2017-04-28T07:17:51Z</time>
      </trkpt>
      <trkpt lat="42.73066" lon="0.08696">
        <ele>1887.52</ele>
        <time>2017-04-28T07:18:09Z</time>
      </trkpt>
      <trkpt lat="42.73066" lon="0.08695">
        <ele>1886.77</ele>
        <time>2017-04-28T07:18:40Z</time>
      </trkpt>
      <trkpt lat="42.73065" lon="0.08695">
        <ele>1883.72</ele>
        <time>2017-04-28T07:19:20Z</time>
      </trkpt>
      <trkpt lat="42.73065" lon="0.08696">
        <ele>1885.25</ele>
        <time>2017-04-28T07:19:39Z</time>
      </trkpt>
      <trkpt lat="42.73066" lon="0.08696">
        <ele>1886.47</ele>
        <time>2017-04-28T07:20:13Z</time>
      </trkpt>
      <trkpt lat="42.73068" lon="0.08697">
        <ele>1890.13</ele>
        <time>2017-04-28T07:20:51Z</time>
      </trkpt>
      <trkpt lat="42.73064" lon="0.08696">
        <ele>1889.39</ele>
        <time>2017-04-28T07:21:10Z</time>
      </trkpt>
      <trkpt lat="42.73054" lon="0.08691">
        <ele>1890.35</ele>
        <time>2017-04-28T07:21:36Z</time>
      </trkpt>
      <trkpt lat="42.73044" lon="0.08686">
        <ele>1891.3</ele>
        <time>2017-04-28T07:21:52Z</time>
      </trkpt>
      <trkpt lat="42.73032" lon="0.08687">
        <ele>1896.22</ele>
        <time>2017-04-28T07:22:10Z</time>
      </trkpt>
      <trkpt lat="42.7302" lon="0.08688">
        <ele>1902.04</ele>
        <time>2017-04-28T07:22:28Z</time>
      </trkpt>
      <trkpt lat="42.7301" lon="0.08692">
        <ele>1906.87</ele>
        <time>2017-04-28T07:22:45Z</time>
      </trkpt>
      <trkpt lat="42.72996" lon="0.08697">
        <ele>1911.09</ele>
        <time>2017-04-28T07:23:06Z</time>
      </trkpt>
      <trkpt lat="42.72987" lon="0.08694">
        <ele>1912.68</ele>
        <time>2017-04-28T07:23:21Z</time>
      </trkpt>
      <trkpt lat="42.72978" lon="0.08688">
        <ele>1912.55</ele>
        <time>2017-04-28T07:23:36Z</time>
      </trkpt>
      <trkpt lat="42.72965" lon="0.08686">
        <ele>1914.89</ele>
        <time>2017-04-28T07:23:55Z</time>
      </trkpt>
      <trkpt lat="42.72951" lon="0.08687">
        <ele>1918.31</ele>
        <time>2017-04-28T07:24:14Z</time>
      </trkpt>
      <trkpt lat="42.7294" lon="0.08688">
        <ele>1919.44</ele>
        <time>2017-04-28T07:24:31Z</time>
      </trkpt>
      <trkpt lat="42.72926" lon="0.08691">
        <ele>1921.66</ele>
        <time>2017-04-28T07:24:51Z</time>
      </trkpt>
      <trkpt lat="42.72914" lon="0.08691">
        <ele>1926.88</ele>
        <time>2017-04-28T07:25:12Z</time>
      </trkpt>
      <trkpt lat="42.72903" lon="0.08692">
        <ele>1929.53</ele>
        <time>2017-04-28T07:25:32Z</time>
      </trkpt>
      <trkpt lat="42.72893" lon="0.08699">
        <ele>1928.51</ele>
        <time>2017-04-28T07:25:49Z</time>
      </trkpt>
      <trkpt lat="42.72889" lon="0.08701">
        <ele>1928.94</ele>
        <time>2017-04-28T07:26:08Z</time>
      </trkpt>
      <trkpt lat="42.72884" lon="0.08703">
        <ele>1929.92</ele>
        <time>2017-04-28T07:26:38Z</time>
      </trkpt>
      <trkpt lat="42.72868" lon="0.08708">
        <ele>1933.92</ele>
        <time>2017-04-28T07:27:02Z</time>
      </trkpt>
      <trkpt lat="42.72857" lon="0.0871">
        <ele>1937.17</ele>
        <time>2017-04-28T07:27:19Z</time>
      </trkpt>
      <trkpt lat="42.72843" lon="0.08713">
        <ele>1941.56</ele>
        <time>2017-04-28T07:27:41Z</time>
      </trkpt>
      <trkpt lat="42.7283" lon="0.08714">
        <ele>1946.26</ele>
        <time>2017-04-28T07:28:03Z</time>
      </trkpt>
      <trkpt lat="42.72819" lon="0.08713">
        <ele>1949.28</ele>
        <time>2017-04-28T07:28:23Z</time>
      </trkpt>
      <trkpt lat="42.72815" lon="0.08721">
        <ele>1952.55</ele>
        <time>2017-04-28T07:28:38Z</time>
      </trkpt>
      <trkpt lat="42.72812" lon="0.08733">
        <ele>1954.9</ele>
        <time>2017-04-28T07:28:55Z</time>
      </trkpt>
      <trkpt lat="42.72801" lon="0.08731">
        <ele>1957.63</ele>
        <time>2017-04-28T07:29:15Z</time>
      </trkpt>
      <trkpt lat="42.72796" lon="0.08739">
        <ele>1960.93</ele>
        <time>2017-04-28T07:29:31Z</time>
      </trkpt>
      <trkpt lat="42.72794" lon="0.08753">
        <ele>1963</ele>
        <time>2017-04-28T07:29:49Z</time>
      </trkpt>
      <trkpt lat="42.72782" lon="0.0875">
        <ele>1966.44</ele>
        <time>2017-04-28T07:30:08Z</time>
      </trkpt>
      <trkpt lat="42.72781" lon="0.08755">
        <ele>1968.85</ele>
        <time>2017-04-28T07:30:20Z</time>
      </trkpt>
      <trkpt lat="42.72783" lon="0.08766">
        <ele>1971.31</ele>
        <time>2017-04-28T07:30:35Z</time>
      </trkpt>
      <trkpt lat="42.7279" lon="0.08776">
        <ele>1973.65</ele>
        <time>2017-04-28T07:30:52Z</time>
      </trkpt>
      <trkpt lat="42.72788" lon="0.0878">
        <ele>1975.15</ele>
        <time>2017-04-28T07:31:04Z</time>
      </trkpt>
      <trkpt lat="42.72778" lon="0.08779">
        <ele>1978.84</ele>
        <time>2017-04-28T07:31:22Z</time>
      </trkpt>
      <trkpt lat="42.72779" lon="0.08778">
        <ele>1980.5</ele>
        <time>2017-04-28T07:31:43Z</time>
      </trkpt>
      <trkpt lat="42.72784" lon="0.08787">
        <ele>1983.31</ele>
        <time>2017-04-28T07:32:03Z</time>
      </trkpt>
      <trkpt lat="42.72785" lon="0.08794">
        <ele>1985.78</ele>
        <time>2017-04-28T07:32:19Z</time>
      </trkpt>
      <trkpt lat="42.72785" lon="0.08797">
        <ele>1987.4</ele>
        <time>2017-04-28T07:32:31Z</time>
      </trkpt>
      <trkpt lat="42.72784" lon="0.08799">
        <ele>1988.37</ele>
        <time>2017-04-28T07:32:46Z</time>
      </trkpt>
      <trkpt lat="42.7278" lon="0.08803">
        <ele>1990.65</ele>
        <time>2017-04-28T07:33:03Z</time>
      </trkpt>
      <trkpt lat="42.7278" lon="0.08807">
        <ele>1993.17</ele>
        <time>2017-04-28T07:33:17Z</time>
      </trkpt>
      <trkpt lat="42.72774" lon="0.08805">
        <ele>1995.17</ele>
        <time>2017-04-28T07:33:32Z</time>
      </trkpt>
      <trkpt lat="42.72773" lon="0.08812">
        <ele>1995.95</ele>
        <time>2017-04-28T07:33:45Z</time>
      </trkpt>
      <trkpt lat="42.72772" lon="0.08815">
        <ele>1996.8</ele>
        <time>2017-04-28T07:33:59Z</time>
      </trkpt>
      <trkpt lat="42.7277" lon="0.08815">
        <ele>1998.6</ele>
        <time>2017-04-28T07:34:23Z</time>
      </trkpt>
      <trkpt lat="42.72771" lon="0.08815">
        <ele>1999.44</ele>
        <time>2017-04-28T07:34:40Z</time>
      </trkpt>
      <trkpt lat="42.72771" lon="0.08815">
        <ele>2000.16</ele>
        <time>2017-04-28T07:34:55Z</time>
      </trkpt>
      <trkpt lat="42.72766" lon="0.08812">
        <ele>2001.21</ele>
        <time>2017-04-28T07:35:07Z</time>
      </trkpt>
      <trkpt lat="42.72766" lon="0.08819">
        <ele>2002.49</ele>
        <time>2017-04-28T07:35:24Z</time>
      </trkpt>
      <trkpt lat="42.72764" lon="0.08828">
        <ele>2003.5</ele>
        <time>2017-04-28T07:35:38Z</time>
      </trkpt>
      <trkpt lat="42.72761" lon="0.08826">
        <ele>2005.58</ele>
        <time>2017-04-28T07:35:52Z</time>
      </trkpt>
      <trkpt lat="42.72759" lon="0.08826">
        <ele>2007.34</ele>
        <time>2017-04-28T07:36:07Z</time>
      </trkpt>
      <trkpt lat="42.72756" lon="0.08824">
        <ele>2008.99</ele>
        <time>2017-04-28T07:36:19Z</time>
      </trkpt>
      <trkpt lat="42.72754" lon="0.08824">
        <ele>2011.25</ele>
        <time>2017-04-28T07:36:36Z</time>
      </trkpt>
      <trkpt lat="42.72747" lon="0.08834">
        <ele>2015.29</ele>
        <time>2017-04-28T07:36:52Z</time>
      </trkpt>
      <trkpt lat="42.72745" lon="0.08842">
        <ele>2017.44</ele>
        <time>2017-04-28T07:37:07Z</time>
      </trkpt>
      <trkpt lat="42.72744" lon="0.08844">
        <ele>2018.49</ele>
        <time>2017-04-28T07:37:21Z</time>
      </trkpt>
      <trkpt lat="42.7274" lon="0.08839">
        <ele>2020.57</ele>
        <time>2017-04-28T07:37:38Z</time>
      </trkpt>
      <trkpt lat="42.72738" lon="0.08834">
        <ele>2023.37</ele>
        <time>2017-04-28T07:37:52Z</time>
      </trkpt>
      <trkpt lat="42.72735" lon="0.0884">
        <ele>2024.88</ele>
        <time>2017-04-28T07:38:06Z</time>
      </trkpt>
      <trkpt lat="42.72732" lon="0.08846">
        <ele>2027.26</ele>
        <time>2017-04-28T07:38:22Z</time>
      </trkpt>
      <trkpt lat="42.72731" lon="0.08841">
        <ele>2028.65</ele>
        <time>2017-04-28T07:38:36Z</time>
      </trkpt>
      <trkpt lat="42.72732" lon="0.08833">
        <ele>2030.09</ele>
        <time>2017-04-28T07:38:52Z</time>
      </trkpt>
      <trkpt lat="42.72729" lon="0.08825">
        <ele>2032.39</ele>
        <time>2017-04-28T07:39:08Z</time>
      </trkpt>
      <trkpt lat="42.72725" lon="0.08836">
        <ele>2034.8</ele>
        <time>2017-04-28T07:39:28Z</time>
      </trkpt>
      <trkpt lat="42.72722" lon="0.0884">
        <ele>2036.88</ele>
        <time>2017-04-28T07:39:45Z</time>
      </trkpt>
      <trkpt lat="42.72716" lon="0.08834">
        <ele>2038.68</ele>
        <time>2017-04-28T07:39:57Z</time>
      </trkpt>
      <trkpt lat="42.72716" lon="0.08826">
        <ele>2041.31</ele>
        <time>2017-04-28T07:40:16Z</time>
      </trkpt>
      <trkpt lat="42.72712" lon="0.08834">
        <ele>2042.33</ele>
        <time>2017-04-28T07:40:30Z</time>
      </trkpt>
      <trkpt lat="42.72709" lon="0.08847">
        <ele>2046.97</ele>
        <time>2017-04-28T07:40:48Z</time>
      </trkpt>
      <trkpt lat="42.72708" lon="0.08847">
        <ele>2047.89</ele>
        <time>2017-04-28T07:41:02Z</time>
      </trkpt>
      <trkpt lat="42.72707" lon="0.08846">
        <ele>2049.01</ele>
        <time>2017-04-28T07:41:36Z</time>
      </trkpt>
      <trkpt lat="42.72708" lon="0.08845">
        <ele>2049.79</ele>
        <time>2017-04-28T07:41:57Z</time>
      </trkpt>
      <trkpt lat="42.72708" lon="0.08845">
        <ele>2048.27</ele>
        <time>2017-04-28T07:42:54Z</time>
      </trkpt>
      <trkpt lat="42.72708" lon="0.08845">
        <ele>2047.83</ele>
        <time>2017-04-28T07:43:24Z</time>
      </trkpt>
      <trkpt lat="42.72709" lon="0.08844">
        <ele>2051.44</ele>
        <time>2017-04-28T07:44:47Z</time>
      </trkpt>
      <trkpt lat="42.72708" lon="0.08845">
        <ele>2051.56</ele>
        <time>2017-04-28T07:45:10Z</time>
      </trkpt>
      <trkpt lat="42.72707" lon="0.08842">
        <ele>2050.99</ele>
        <time>2017-04-28T07:45:35Z</time>
      </trkpt>
      <trkpt lat="42.72704" lon="0.08836">
        <ele>2052.04</ele>
        <time>2017-04-28T07:45:55Z</time>
      </trkpt>
      <trkpt lat="42.72699" lon="0.0885">
        <ele>2056.21</ele>
        <time>2017-04-28T07:46:16Z</time>
      </trkpt>
      <trkpt lat="42.72695" lon="0.08849">
        <ele>2058.7</ele>
        <time>2017-04-28T07:46:31Z</time>
      </trkpt>
      <trkpt lat="42.72691" lon="0.08842">
        <ele>2059.92</ele>
        <time>2017-04-28T07:46:49Z</time>
      </trkpt>
      <trkpt lat="42.72688" lon="0.08851">
        <ele>2060.15</ele>
        <time>2017-04-28T07:47:03Z</time>
      </trkpt>
      <trkpt lat="42.72683" lon="0.08862">
        <ele>2063.79</ele>
        <time>2017-04-28T07:47:23Z</time>
      </trkpt>
      <trkpt lat="42.7268" lon="0.08859">
        <ele>2065.1</ele>
        <time>2017-04-28T07:47:37Z</time>
      </trkpt>
      <trkpt lat="42.72677" lon="0.08851">
        <ele>2067.69</ele>
        <time>2017-04-28T07:47:55Z</time>
      </trkpt>
      <trkpt lat="42.72675" lon="0.08854">
        <ele>2069.23</ele>
        <time>2017-04-28T07:48:14Z</time>
      </trkpt>
      <trkpt lat="42.7267" lon="0.08865">
        <ele>2071.43</ele>
        <time>2017-04-28T07:48:32Z</time>
      </trkpt>
      <trkpt lat="42.72665" lon="0.08873">
        <ele>2076.9</ele>
        <time>2017-04-28T07:48:48Z</time>
      </trkpt>
      <trkpt lat="42.72661" lon="0.08879">
        <ele>2080.94</ele>
        <time>2017-04-28T07:49:05Z</time>
      </trkpt>
      <trkpt lat="42.72655" lon="0.08888">
        <ele>2082.39</ele>
        <time>2017-04-28T07:49:24Z</time>
      </trkpt>
      <trkpt lat="42.72652" lon="0.08892">
        <ele>2084.39</ele>
        <time>2017-04-28T07:49:42Z</time>
      </trkpt>
      <trkpt lat="42.72652" lon="0.08885">
        <ele>2084.92</ele>
        <time>2017-04-28T07:50:01Z</time>
      </trkpt>
      <trkpt lat="42.72649" lon="0.08886">
        <ele>2085.54</ele>
        <time>2017-04-28T07:50:17Z</time>
      </trkpt>
      <trkpt lat="42.72643" lon="0.08895">
        <ele>2085.3</ele>
        <time>2017-04-28T07:50:35Z</time>
      </trkpt>
      <trkpt lat="42.72642" lon="0.08893">
        <ele>2086.69</ele>
        <time>2017-04-28T07:50:49Z</time>
      </trkpt>
      <trkpt lat="42.72641" lon="0.08884">
        <ele>2089.14</ele>
        <time>2017-04-28T07:51:10Z</time>
      </trkpt>
      <trkpt lat="42.72639" lon="0.08885">
        <ele>2090.31</ele>
        <time>2017-04-28T07:51:29Z</time>
      </trkpt>
      <trkpt lat="42.72635" lon="0.08891">
        <ele>2091.26</ele>
        <time>2017-04-28T07:51:45Z</time>
      </trkpt>
      <trkpt lat="42.72632" lon="0.08895">
        <ele>2091.83</ele>
        <time>2017-04-28T07:52:04Z</time>
      </trkpt>
      <trkpt lat="42.72629" lon="0.08901">
        <ele>2091.65</ele>
        <time>2017-04-28T07:52:22Z</time>
      </trkpt>
      <trkpt lat="42.7263" lon="0.08893">
        <ele>2093.27</ele>
        <time>2017-04-28T07:52:46Z</time>
      </trkpt>
      <trkpt lat="42.7263" lon="0.08889">
        <ele>2094.29</ele>
        <time>2017-04-28T07:53:14Z</time>
      </trkpt>
      <trkpt lat="42.72631" lon="0.08888">
        <ele>2095.21</ele>
        <time>2017-04-28T07:53:38Z</time>
      </trkpt>
      <trkpt lat="42.7263" lon="0.08883">
        <ele>2096.71</ele>
        <time>2017-04-28T07:53:58Z</time>
      </trkpt>
      <trkpt lat="42.72628" lon="0.08887">
        <ele>2097.63</ele>
        <time>2017-04-28T07:54:18Z</time>
      </trkpt>
      <trkpt lat="42.72619" lon="0.08898">
        <ele>2103.66</ele>
        <time>2017-04-28T07:54:39Z</time>
      </trkpt>
      <trkpt lat="42.72616" lon="0.08902">
        <ele>2105.76</ele>
        <time>2017-04-28T07:54:54Z</time>
      </trkpt>
      <trkpt lat="42.72616" lon="0.08892">
        <ele>2106.54</ele>
        <time>2017-04-28T07:55:13Z</time>
      </trkpt>
      <trkpt lat="42.72617" lon="0.08888">
        <ele>2106.75</ele>
        <time>2017-04-28T07:55:31Z</time>
      </trkpt>
      <trkpt lat="42.72611" lon="0.08892">
        <ele>2108</ele>
        <time>2017-04-28T07:55:49Z</time>
      </trkpt>
      <trkpt lat="42.72608" lon="0.08896">
        <ele>2109.83</ele>
        <time>2017-04-28T07:56:11Z</time>
      </trkpt>
      <trkpt lat="42.72602" lon="0.08907">
        <ele>2116.16</ele>
        <time>2017-04-28T07:56:30Z</time>
      </trkpt>
      <trkpt lat="42.726" lon="0.08901">
        <ele>2117.73</ele>
        <time>2017-04-28T07:56:46Z</time>
      </trkpt>
      <trkpt lat="42.72599" lon="0.0889">
        <ele>2122.06</ele>
        <time>2017-04-28T07:57:04Z</time>
      </trkpt>
      <trkpt lat="42.726" lon="0.08882">
        <ele>2124.71</ele>
        <time>2017-04-28T07:57:22Z</time>
      </trkpt>
      <trkpt lat="42.72593" lon="0.08889">
        <ele>2127</ele>
        <time>2017-04-28T07:57:39Z</time>
      </trkpt>
      <trkpt lat="42.72587" lon="0.08895">
        <ele>2132.03</ele>
        <time>2017-04-28T07:57:54Z</time>
      </trkpt>
      <trkpt lat="42.72581" lon="0.08903">
        <ele>2134.55</ele>
        <time>2017-04-28T07:58:11Z</time>
      </trkpt>
      <trkpt lat="42.7258" lon="0.08906">
        <ele>2135.17</ele>
        <time>2017-04-28T07:58:32Z</time>
      </trkpt>
      <trkpt lat="42.7258" lon="0.08907">
        <ele>2134.47</ele>
        <time>2017-04-28T07:59:06Z</time>
      </trkpt>
      <trkpt lat="42.7258" lon="0.08908">
        <ele>2134.22</ele>
        <time>2017-04-28T07:59:25Z</time>
      </trkpt>
      <trkpt lat="42.72579" lon="0.08897">
        <ele>2134.31</ele>
        <time>2017-04-28T07:59:45Z</time>
      </trkpt>
      <trkpt lat="42.72579" lon="0.08884">
        <ele>2136.82</ele>
        <time>2017-04-28T08:00:05Z</time>
      </trkpt>
      <trkpt lat="42.72576" lon="0.08882">
        <ele>2139</ele>
        <time>2017-04-28T08:00:22Z</time>
      </trkpt>
      <trkpt lat="42.72569" lon="0.08889">
        <ele>2142.94</ele>
        <time>2017-04-28T08:00:40Z</time>
      </trkpt>
      <trkpt lat="42.72562" lon="0.08894">
        <ele>2145.48</ele>
        <time>2017-04-28T08:00:57Z</time>
      </trkpt>
      <trkpt lat="42.72555" lon="0.089">
        <ele>2147.86</ele>
        <time>2017-04-28T08:01:12Z</time>
      </trkpt>
      <trkpt lat="42.7255" lon="0.08907">
        <ele>2150.86</ele>
        <time>2017-04-28T08:01:27Z</time>
      </trkpt>
      <trkpt lat="42.72547" lon="0.08909">
        <ele>2153.36</ele>
        <time>2017-04-28T08:01:44Z</time>
      </trkpt>
      <trkpt lat="42.72547" lon="0.089">
        <ele>2155.71</ele>
        <time>2017-04-28T08:01:59Z</time>
      </trkpt>
      <trkpt lat="42.72547" lon="0.08887">
        <ele>2159.47</ele>
        <time>2017-04-28T08:02:19Z</time>
      </trkpt>
      <trkpt lat="42.72546" lon="0.08882">
        <ele>2161.48</ele>
        <time>2017-04-28T08:02:36Z</time>
      </trkpt>
      <trkpt lat="42.7254" lon="0.08888">
        <ele>2161.92</ele>
        <time>2017-04-28T08:02:53Z</time>
      </trkpt>
      <trkpt lat="42.72534" lon="0.08896">
        <ele>2164.62</ele>
        <time>2017-04-28T08:03:09Z</time>
      </trkpt>
      <trkpt lat="42.72529" lon="0.08904">
        <ele>2166.38</ele>
        <time>2017-04-28T08:03:23Z</time>
      </trkpt>
      <trkpt lat="42.72523" lon="0.08911">
        <ele>2170.77</ele>
        <time>2017-04-28T08:03:38Z</time>
      </trkpt>
      <trkpt lat="42.72516" lon="0.08919">
        <ele>2174.58</ele>
        <time>2017-04-28T08:03:55Z</time>
      </trkpt>
      <trkpt lat="42.72515" lon="0.08922">
        <ele>2176.15</ele>
        <time>2017-04-28T08:04:08Z</time>
      </trkpt>
      <trkpt lat="42.72514" lon="0.0891">
        <ele>2177.87</ele>
        <time>2017-04-28T08:04:26Z</time>
      </trkpt>
      <trkpt lat="42.72514" lon="0.08897">
        <ele>2180.17</ele>
        <time>2017-04-28T08:04:46Z</time>
      </trkpt>
      <trkpt lat="42.72514" lon="0.08884">
        <ele>2184.89</ele>
        <time>2017-04-28T08:05:06Z</time>
      </trkpt>
      <trkpt lat="42.72514" lon="0.08875">
        <ele>2187.21</ele>
        <time>2017-04-28T08:05:22Z</time>
      </trkpt>
      <trkpt lat="42.7251" lon="0.0888">
        <ele>2188.78</ele>
        <time>2017-04-28T08:05:40Z</time>
      </trkpt>
      <trkpt lat="42.72504" lon="0.08887">
        <ele>2193.86</ele>
        <time>2017-04-28T08:05:56Z</time>
      </trkpt>
      <trkpt lat="42.72501" lon="0.08889">
        <ele>2195.01</ele>
        <time>2017-04-28T08:06:13Z</time>
      </trkpt>
      <trkpt lat="42.72496" lon="0.08892">
        <ele>2195.57</ele>
        <time>2017-04-28T08:06:29Z</time>
      </trkpt>
      <trkpt lat="42.72488" lon="0.08899">
        <ele>2196.1</ele>
        <time>2017-04-28T08:06:46Z</time>
      </trkpt>
      <trkpt lat="42.72483" lon="0.08904">
        <ele>2197.49</ele>
        <time>2017-04-28T08:07:01Z</time>
      </trkpt>
      <trkpt lat="42.72477" lon="0.08914">
        <ele>2199.99</ele>
        <time>2017-04-28T08:07:18Z</time>
      </trkpt>
      <trkpt lat="42.72477" lon="0.08914">
        <ele>2200.64</ele>
        <time>2017-04-28T08:07:29Z</time>
      </trkpt>
      <trkpt lat="42.72476" lon="0.08906">
        <ele>2202.35</ele>
        <time>2017-04-28T08:07:47Z</time>
      </trkpt>
      <trkpt lat="42.72477" lon="0.08898">
        <ele>2203.78</ele>
        <time>2017-04-28T08:08:02Z</time>
      </trkpt>
      <trkpt lat="42.72478" lon="0.08892">
        <ele>2205.81</ele>
        <time>2017-04-28T08:08:18Z</time>
      </trkpt>
      <trkpt lat="42.7247" lon="0.08896">
        <ele>2207.53</ele>
        <time>2017-04-28T08:08:36Z</time>
      </trkpt>
      <trkpt lat="42.72464" lon="0.08905">
        <ele>2211.09</ele>
        <time>2017-04-28T08:08:54Z</time>
      </trkpt>
      <trkpt lat="42.72462" lon="0.08908">
        <ele>2211.68</ele>
        <time>2017-04-28T08:09:10Z</time>
      </trkpt>
      <trkpt lat="42.72462" lon="0.08901">
        <ele>2213.42</ele>
        <time>2017-04-28T08:09:23Z</time>
      </trkpt>
      <trkpt lat="42.72463" lon="0.08891">
        <ele>2215.74</ele>
        <time>2017-04-28T08:09:40Z</time>
      </trkpt>
      <trkpt lat="42.72459" lon="0.08893">
        <ele>2216.73</ele>
        <time>2017-04-28T08:09:55Z</time>
      </trkpt>
      <trkpt lat="42.72453" lon="0.08899">
        <ele>2219.13</ele>
        <time>2017-04-28T08:10:13Z</time>
      </trkpt>
      <trkpt lat="42.72447" lon="0.08906">
        <ele>2223.27</ele>
        <time>2017-04-28T08:10:29Z</time>
      </trkpt>
      <trkpt lat="42.72446" lon="0.08908">
        <ele>2223.21</ele>
        <time>2017-04-28T08:10:47Z</time>
      </trkpt>
      <trkpt lat="42.72444" lon="0.08901">
        <ele>2225.73</ele>
        <time>2017-04-28T08:11:02Z</time>
      </trkpt>
      <trkpt lat="42.72445" lon="0.08893">
        <ele>2227.26</ele>
        <time>2017-04-28T08:11:15Z</time>
      </trkpt>
      <trkpt lat="42.72446" lon="0.08888">
        <ele>2228.5</ele>
        <time>2017-04-28T08:11:29Z</time>
      </trkpt>
      <trkpt lat="42.72443" lon="0.08891">
        <ele>2229.86</ele>
        <time>2017-04-28T08:11:46Z</time>
      </trkpt>
      <trkpt lat="42.72435" lon="0.08895">
        <ele>2232.32</ele>
        <time>2017-04-28T08:12:04Z</time>
      </trkpt>
      <trkpt lat="42.72428" lon="0.08902">
        <ele>2234.51</ele>
        <time>2017-04-28T08:12:20Z</time>
      </trkpt>
      <trkpt lat="42.72427" lon="0.08903">
        <ele>2234.61</ele>
        <time>2017-04-28T08:12:36Z</time>
      </trkpt>
      <trkpt lat="42.72427" lon="0.08893">
        <ele>2236.3</ele>
        <time>2017-04-28T08:12:52Z</time>
      </trkpt>
      <trkpt lat="42.72429" lon="0.08883">
        <ele>2238.13</ele>
        <time>2017-04-28T08:13:07Z</time>
      </trkpt>
      <trkpt lat="42.72429" lon="0.08882">
        <ele>2238.36</ele>
        <time>2017-04-28T08:13:24Z</time>
      </trkpt>
      <trkpt lat="42.7243" lon="0.08883">
        <ele>2238.42</ele>
        <time>2017-04-28T08:13:46Z</time>
      </trkpt>
      <trkpt lat="42.72425" lon="0.08884">
        <ele>2238.75</ele>
        <time>2017-04-28T08:14:06Z</time>
      </trkpt>
      <trkpt lat="42.72419" lon="0.08887">
        <ele>2239.51</ele>
        <time>2017-04-28T08:14:20Z</time>
      </trkpt>
      <trkpt lat="42.72419" lon="0.08887">
        <ele>2239.36</ele>
        <time>2017-04-28T08:14:36Z</time>
      </trkpt>
      <trkpt lat="42.7242" lon="0.08883">
        <ele>2239.92</ele>
        <time>2017-04-28T08:14:54Z</time>
      </trkpt>
      <trkpt lat="42.72413" lon="0.08889">
        <ele>2242.52</ele>
        <time>2017-04-28T08:15:12Z</time>
      </trkpt>
      <trkpt lat="42.72412" lon="0.0889">
        <ele>2244.2</ele>
        <time>2017-04-28T08:15:26Z</time>
      </trkpt>
      <trkpt lat="42.72412" lon="0.08882">
        <ele>2246</ele>
        <time>2017-04-28T08:15:44Z</time>
      </trkpt>
      <trkpt lat="42.72408" lon="0.08885">
        <ele>2247.74</ele>
        <time>2017-04-28T08:15:59Z</time>
      </trkpt>
      <trkpt lat="42.72405" lon="0.08888">
        <ele>2249.34</ele>
        <time>2017-04-28T08:16:13Z</time>
      </trkpt>
      <trkpt lat="42.72399" lon="0.08896">
        <ele>2251.56</ele>
        <time>2017-04-28T08:16:30Z</time>
      </trkpt>
      <trkpt lat="42.72395" lon="0.08903">
        <ele>2253.72</ele>
        <time>2017-04-28T08:16:48Z</time>
      </trkpt>
      <trkpt lat="42.72394" lon="0.08902">
        <ele>2254.07</ele>
        <time>2017-04-28T08:17:03Z</time>
      </trkpt>
      <trkpt lat="42.72395" lon="0.08895">
        <ele>2254.98</ele>
        <time>2017-04-28T08:17:17Z</time>
      </trkpt>
      <trkpt lat="42.72396" lon="0.08887">
        <ele>2256.54</ele>
        <time>2017-04-28T08:17:31Z</time>
      </trkpt>
      <trkpt lat="42.72394" lon="0.08887">
        <ele>2257.59</ele>
        <time>2017-04-28T08:17:53Z</time>
      </trkpt>
      <trkpt lat="42.72389" lon="0.08891">
        <ele>2259.35</ele>
        <time>2017-04-28T08:18:11Z</time>
      </trkpt>
      <trkpt lat="42.72389" lon="0.08886">
        <ele>2260.89</ele>
        <time>2017-04-28T08:18:26Z</time>
      </trkpt>
      <trkpt lat="42.72386" lon="0.0889">
        <ele>2262.4</ele>
        <time>2017-04-28T08:18:47Z</time>
      </trkpt>
      <trkpt lat="42.72382" lon="0.08896">
        <ele>2264.25</ele>
        <time>2017-04-28T08:19:03Z</time>
      </trkpt>
      <trkpt lat="42.72382" lon="0.08895">
        <ele>2264.91</ele>
        <time>2017-04-28T08:19:21Z</time>
      </trkpt>
      <trkpt lat="42.72382" lon="0.08887">
        <ele>2267.18</ele>
        <time>2017-04-28T08:19:36Z</time>
      </trkpt>
      <trkpt lat="42.72381" lon="0.08884">
        <ele>2268.56</ele>
        <time>2017-04-28T08:19:54Z</time>
      </trkpt>
      <trkpt lat="42.72378" lon="0.08891">
        <ele>2271.54</ele>
        <time>2017-04-28T08:20:10Z</time>
      </trkpt>
      <trkpt lat="42.72378" lon="0.08899">
        <ele>2277.95</ele>
        <time>2017-04-28T08:20:27Z</time>
      </trkpt>
      <trkpt lat="42.72374" lon="0.08899">
        <ele>2278.2</ele>
        <time>2017-04-28T08:20:44Z</time>
      </trkpt>
      <trkpt lat="42.72372" lon="0.08893">
        <ele>2279.62</ele>
        <time>2017-04-28T08:20:58Z</time>
      </trkpt>
      <trkpt lat="42.72371" lon="0.08886">
        <ele>2280.8</ele>
        <time>2017-04-28T08:21:12Z</time>
      </trkpt>
      <trkpt lat="42.72371" lon="0.08881">
        <ele>2281.72</ele>
        <time>2017-04-28T08:21:29Z</time>
      </trkpt>
      <trkpt lat="42.7237" lon="0.08882">
        <ele>2281.6</ele>
        <time>2017-04-28T08:21:48Z</time>
      </trkpt>
      <trkpt lat="42.72366" lon="0.08885">
        <ele>2282.52</ele>
        <time>2017-04-28T08:22:13Z</time>
      </trkpt>
      <trkpt lat="42.72364" lon="0.08891">
        <ele>2283.8</ele>
        <time>2017-04-28T08:22:28Z</time>
      </trkpt>
      <trkpt lat="42.72362" lon="0.08892">
        <ele>2283.88</ele>
        <time>2017-04-28T08:22:50Z</time>
      </trkpt>
      <trkpt lat="42.72362" lon="0.08889">
        <ele>2284.61</ele>
        <time>2017-04-28T08:23:05Z</time>
      </trkpt>
      <trkpt lat="42.72362" lon="0.08884">
        <ele>2285.7</ele>
        <time>2017-04-28T08:23:19Z</time>
      </trkpt>
      <trkpt lat="42.72362" lon="0.08881">
        <ele>2285.73</ele>
        <time>2017-04-28T08:23:40Z</time>
      </trkpt>
      <trkpt lat="42.72362" lon="0.08878">
        <ele>2286.14</ele>
        <time>2017-04-28T08:23:56Z</time>
      </trkpt>
      <trkpt lat="42.72361" lon="0.08876">
        <ele>2287.35</ele>
        <time>2017-04-28T08:24:12Z</time>
      </trkpt>
      <trkpt lat="42.7236" lon="0.08875">
        <ele>2286.89</ele>
        <time>2017-04-28T08:24:26Z</time>
      </trkpt>
      <trkpt lat="42.7236" lon="0.08873">
        <ele>2286.23</ele>
        <time>2017-04-28T08:24:39Z</time>
      </trkpt>
      <trkpt lat="42.7236" lon="0.08876">
        <ele>2287.8</ele>
        <time>2017-04-28T08:24:58Z</time>
      </trkpt>
      <trkpt lat="42.7236" lon="0.08876">
        <ele>2290</ele>
        <time>2017-04-28T08:25:19Z</time>
      </trkpt>
      <trkpt lat="42.72359" lon="0.08875">
        <ele>2290.86</ele>
        <time>2017-04-28T08:25:37Z</time>
      </trkpt>
      <trkpt lat="42.7236" lon="0.08874">
        <ele>2291.63</ele>
        <time>2017-04-28T08:25:58Z</time>
      </trkpt>
      <trkpt lat="42.72358" lon="0.08878">
        <ele>2292.66</ele>
        <time>2017-04-28T08:26:14Z</time>
      </trkpt>
      <trkpt lat="42.72355" lon="0.08886">
        <ele>2292.76</ele>
        <time>2017-04-28T08:26:31Z</time>
      </trkpt>
      <trkpt lat="42.72357" lon="0.08893">
        <ele>2291.87</ele>
        <time>2017-04-28T08:26:48Z</time>
      </trkpt>
      <trkpt lat="42.72353" lon="0.08893">
        <ele>2292.37</ele>
        <time>2017-04-28T08:27:07Z</time>
      </trkpt>
      <trkpt lat="42.72354" lon="0.08894">
        <ele>2293.36</ele>
        <time>2017-04-28T08:27:39Z</time>
      </trkpt>
      <trkpt lat="42.72352" lon="0.08889">
        <ele>2294.36</ele>
        <time>2017-04-28T08:27:57Z</time>
      </trkpt>
      <trkpt lat="42.7235" lon="0.08881">
        <ele>2296.49</ele>
        <time>2017-04-28T08:28:11Z</time>
      </trkpt>
      <trkpt lat="42.72349" lon="0.08878">
        <ele>2298.99</ele>
        <time>2017-04-28T08:28:27Z</time>
      </trkpt>
      <trkpt lat="42.72345" lon="0.08878">
        <ele>2300.38</ele>
        <time>2017-04-28T08:28:44Z</time>
      </trkpt>
      <trkpt lat="42.72341" lon="0.08885">
        <ele>2302.55</ele>
        <time>2017-04-28T08:29:00Z</time>
      </trkpt>
      <trkpt lat="42.72341" lon="0.08887">
        <ele>2303.28</ele>
        <time>2017-04-28T08:29:18Z</time>
      </trkpt>
      <trkpt lat="42.7234" lon="0.08882">
        <ele>2303.84</ele>
        <time>2017-04-28T08:29:42Z</time>
      </trkpt>
      <trkpt lat="42.7234" lon="0.08874">
        <ele>2305.71</ele>
        <time>2017-04-28T08:30:00Z</time>
      </trkpt>
      <trkpt lat="42.7234" lon="0.0887">
        <ele>2307.33</ele>
        <time>2017-04-28T08:30:18Z</time>
      </trkpt>
      <trkpt lat="42.7234" lon="0.08871">
        <ele>2307.56</ele>
        <time>2017-04-28T08:30:35Z</time>
      </trkpt>
      <trkpt lat="42.72336" lon="0.08875">
        <ele>2310.19</ele>
        <time>2017-04-28T08:30:52Z</time>
      </trkpt>
      <trkpt lat="42.72334" lon="0.0888">
        <ele>2311.89</ele>
        <time>2017-04-28T08:31:09Z</time>
      </trkpt>
      <trkpt lat="42.72334" lon="0.08873">
        <ele>2312.47</ele>
        <time>2017-04-28T08:31:23Z</time>
      </trkpt>
      <trkpt lat="42.72334" lon="0.0886">
        <ele>2316.3</ele>
        <time>2017-04-28T08:31:39Z</time>
      </trkpt>
      <trkpt lat="42.72334" lon="0.0885">
        <ele>2318.88</ele>
        <time>2017-04-28T08:31:55Z</time>
      </trkpt>
      <trkpt lat="42.72332" lon="0.08849">
        <ele>2320.66</ele>
        <time>2017-04-28T08:32:10Z</time>
      </trkpt>
      <trkpt lat="42.72324" lon="0.08858">
        <ele>2322.52</ele>
        <time>2017-04-28T08:32:28Z</time>
      </trkpt>
      <trkpt lat="42.72321" lon="0.0886">
        <ele>2323.45</ele>
        <time>2017-04-28T08:32:47Z</time>
      </trkpt>
      <trkpt lat="42.72316" lon="0.08868">
        <ele>2326.53</ele>
        <time>2017-04-28T08:33:04Z</time>
      </trkpt>
      <trkpt lat="42.72314" lon="0.08872">
        <ele>2326.63</ele>
        <time>2017-04-28T08:33:20Z</time>
      </trkpt>
      <trkpt lat="42.72314" lon="0.08871">
        <ele>2328.4</ele>
        <time>2017-04-28T08:33:55Z</time>
      </trkpt>
      <trkpt lat="42.72314" lon="0.08869">
        <ele>2329.65</ele>
        <time>2017-04-28T08:34:20Z</time>
      </trkpt>
      <trkpt lat="42.72312" lon="0.08856">
        <ele>2333.1</ele>
        <time>2017-04-28T08:34:37Z</time>
      </trkpt>
      <trkpt lat="42.72312" lon="0.08848">
        <ele>2337.12</ele>
        <time>2017-04-28T08:34:55Z</time>
      </trkpt>
      <trkpt lat="42.72309" lon="0.08851">
        <ele>2338.73</ele>
        <time>2017-04-28T08:35:11Z</time>
      </trkpt>
      <trkpt lat="42.72302" lon="0.0886">
        <ele>2340.72</ele>
        <time>2017-04-28T08:35:28Z</time>
      </trkpt>
      <trkpt lat="42.72299" lon="0.08869">
        <ele>2340.89</ele>
        <time>2017-04-28T08:35:47Z</time>
      </trkpt>
      <trkpt lat="42.72297" lon="0.08865">
        <ele>2340.24</ele>
        <time>2017-04-28T08:36:01Z</time>
      </trkpt>
      <trkpt lat="42.72295" lon="0.0885">
        <ele>2342.35</ele>
        <time>2017-04-28T08:36:20Z</time>
      </trkpt>
      <trkpt lat="42.72296" lon="0.08839">
        <ele>2345.68</ele>
        <time>2017-04-28T08:36:38Z</time>
      </trkpt>
      <trkpt lat="42.7229" lon="0.08844">
        <ele>2345.84</ele>
        <time>2017-04-28T08:36:55Z</time>
      </trkpt>
      <trkpt lat="42.72283" lon="0.08852">
        <ele>2348.48</ele>
        <time>2017-04-28T08:37:12Z</time>
      </trkpt>
      <trkpt lat="42.72278" lon="0.08865">
        <ele>2352.83</ele>
        <time>2017-04-28T08:37:30Z</time>
      </trkpt>
      <trkpt lat="42.72277" lon="0.08861">
        <ele>2353.81</ele>
        <time>2017-04-28T08:37:44Z</time>
      </trkpt>
      <trkpt lat="42.72272" lon="0.08849">
        <ele>2359.17</ele>
        <time>2017-04-28T08:38:03Z</time>
      </trkpt>
      <trkpt lat="42.72272" lon="0.08846">
        <ele>2360.77</ele>
        <time>2017-04-28T08:38:07Z</time>
      </trkpt>
      <trkpt lat="42.72271" lon="0.08834">
        <ele>2363.76</ele>
        <time>2017-04-28T08:38:24Z</time>
      </trkpt>
      <trkpt lat="42.72271" lon="0.08828">
        <ele>2363.14</ele>
        <time>2017-04-28T08:38:42Z</time>
      </trkpt>
      <trkpt lat="42.72265" lon="0.08834">
        <ele>2364.77</ele>
        <time>2017-04-28T08:39:01Z</time>
      </trkpt>
      <trkpt lat="42.72259" lon="0.08843">
        <ele>2367.03</ele>
        <time>2017-04-28T08:39:19Z</time>
      </trkpt>
      <trkpt lat="42.72254" lon="0.08852">
        <ele>2369.86</ele>
        <time>2017-04-28T08:39:36Z</time>
      </trkpt>
      <trkpt lat="42.72251" lon="0.08863">
        <ele>2372.29</ele>
        <time>2017-04-28T08:39:53Z</time>
      </trkpt>
      <trkpt lat="42.72248" lon="0.08858">
        <ele>2373.79</ele>
        <time>2017-04-28T08:40:09Z</time>
      </trkpt>
      <trkpt lat="42.72242" lon="0.08845">
        <ele>2376.85</ele>
        <time>2017-04-28T08:40:27Z</time>
      </trkpt>
      <trkpt lat="42.72241" lon="0.08834">
        <ele>2380.7</ele>
        <time>2017-04-28T08:40:47Z</time>
      </trkpt>
      <trkpt lat="42.72241" lon="0.08822">
        <ele>2385.74</ele>
        <time>2017-04-28T08:41:05Z</time>
      </trkpt>
      <trkpt lat="42.7224" lon="0.08815">
        <ele>2387.83</ele>
        <time>2017-04-28T08:41:21Z</time>
      </trkpt>
      <trkpt lat="42.7224" lon="0.08815">
        <ele>2389.02</ele>
        <time>2017-04-28T08:41:46Z</time>
      </trkpt>
      <trkpt lat="42.72234" lon="0.08818">
        <ele>2389.16</ele>
        <time>2017-04-28T08:42:09Z</time>
      </trkpt>
      <trkpt lat="42.72227" lon="0.08826">
        <ele>2389.22</ele>
        <time>2017-04-28T08:42:25Z</time>
      </trkpt>
      <trkpt lat="42.7222" lon="0.08832">
        <ele>2392.17</ele>
        <time>2017-04-28T08:42:43Z</time>
      </trkpt>
      <trkpt lat="42.72214" lon="0.08841">
        <ele>2394.77</ele>
        <time>2017-04-28T08:43:00Z</time>
      </trkpt>
      <trkpt lat="42.7221" lon="0.08842">
        <ele>2394.17</ele>
        <time>2017-04-28T08:43:15Z</time>
      </trkpt>
      <trkpt lat="42.72205" lon="0.0883">
        <ele>2398.29</ele>
        <time>2017-04-28T08:43:35Z</time>
      </trkpt>
      <trkpt lat="42.72198" lon="0.08841">
        <ele>2402.25</ele>
        <time>2017-04-28T08:43:50Z</time>
      </trkpt>
      <trkpt lat="42.72191" lon="0.08849">
        <ele>2402.42</ele>
        <time>2017-04-28T08:44:07Z</time>
      </trkpt>
      <trkpt lat="42.72182" lon="0.08857">
        <ele>2404.84</ele>
        <time>2017-04-28T08:44:24Z</time>
      </trkpt>
      <trkpt lat="42.72173" lon="0.08859">
        <ele>2407.67</ele>
        <time>2017-04-28T08:44:41Z</time>
      </trkpt>
      <trkpt lat="42.72164" lon="0.0886">
        <ele>2409.07</ele>
        <time>2017-04-28T08:44:56Z</time>
      </trkpt>
      <trkpt lat="42.72152" lon="0.08863">
        <ele>2410.66</ele>
        <time>2017-04-28T08:45:14Z</time>
      </trkpt>
      <trkpt lat="42.72147" lon="0.0886">
        <ele>2411.63</ele>
        <time>2017-04-28T08:45:28Z</time>
      </trkpt>
      <trkpt lat="42.72146" lon="0.08858">
        <ele>2412.92</ele>
        <time>2017-04-28T08:45:43Z</time>
      </trkpt>
      <trkpt lat="42.72146" lon="0.08858">
        <ele>2413.57</ele>
        <time>2017-04-28T08:46:01Z</time>
      </trkpt>
      <trkpt lat="42.72145" lon="0.08859">
        <ele>2414.54</ele>
        <time>2017-04-28T08:46:37Z</time>
      </trkpt>
      <trkpt lat="42.72145" lon="0.08859">
        <ele>2414.66</ele>
        <time>2017-04-28T08:46:51Z</time>
      </trkpt>
      <trkpt lat="42.72144" lon="0.0886">
        <ele>2414.7</ele>
        <time>2017-04-28T08:47:10Z</time>
      </trkpt>
      <trkpt lat="42.72144" lon="0.08861">
        <ele>2414.98</ele>
        <time>2017-04-28T08:47:25Z</time>
      </trkpt>
      <trkpt lat="42.72144" lon="0.08861">
        <ele>2414.44</ele>
        <time>2017-04-28T08:47:39Z</time>
      </trkpt>
      <trkpt lat="42.72144" lon="0.08861">
        <ele>2414.81</ele>
        <time>2017-04-28T08:47:54Z</time>
      </trkpt>
      <trkpt lat="42.72143" lon="0.08861">
        <ele>2415.75</ele>
        <time>2017-04-28T08:48:09Z</time>
      </trkpt>
      <trkpt lat="42.72143" lon="0.08862">
        <ele>2415.94</ele>
        <time>2017-04-28T08:48:23Z</time>
      </trkpt>
      <trkpt lat="42.72144" lon="0.08862">
        <ele>2416.84</ele>
        <time>2017-04-28T08:48:37Z</time>
      </trkpt>
      <trkpt lat="42.72144" lon="0.08863">
        <ele>2417.37</ele>
        <time>2017-04-28T08:48:51Z</time>
      </trkpt>
      <trkpt lat="42.72144" lon="0.08863">
        <ele>2417.14</ele>
        <time>2017-04-28T08:49:06Z</time>
      </trkpt>
      <trkpt lat="42.72144" lon="0.08862">
        <ele>2416.56</ele>
        <time>2017-04-28T08:49:18Z</time>
      </trkpt>
      <trkpt lat="42.72143" lon="0.08862">
        <ele>2416.4</ele>
        <time>2017-04-28T08:49:31Z</time>
      </trkpt>
      <trkpt lat="42.72143" lon="0.08863">
        <ele>2416.45</ele>
        <time>2017-04-28T08:49:45Z</time>
      </trkpt>
      <trkpt lat="42.72141" lon="0.08863">
        <ele>2416.91</ele>
        <time>2017-04-28T08:49:58Z</time>
      </trkpt>
      <trkpt lat="42.72142" lon="0.08861">
        <ele>2416.01</ele>
        <time>2017-04-28T08:50:11Z</time>
      </trkpt>
      <trkpt lat="42.72143" lon="0.08862">
        <ele>2415.57</ele>
        <time>2017-04-28T08:50:25Z</time>
      </trkpt>
      <trkpt lat="42.72145" lon="0.08863">
        <ele>2414.74</ele>
        <time>2017-04-28T08:50:40Z</time>
      </trkpt>
      <trkpt lat="42.72145" lon="0.08862">
        <ele>2414.95</ele>
        <time>2017-04-28T08:50:55Z</time>
      </trkpt>
      <trkpt lat="42.72144" lon="0.08862">
        <ele>2414.55</ele>
        <time>2017-04-28T08:51:10Z</time>
      </trkpt>
      <trkpt lat="42.72145" lon="0.08861">
        <ele>2414.18</ele>
        <time>2017-04-28T08:51:26Z</time>
      </trkpt>
      <trkpt lat="42.72145" lon="0.08862">
        <ele>2414.64</ele>
        <time>2017-04-28T08:51:42Z</time>
      </trkpt>
      <trkpt lat="42.72144" lon="0.08862">
        <ele>2414.98</ele>
        <time>2017-04-28T08:51:57Z</time>
      </trkpt>
      <trkpt lat="42.72144" lon="0.08861">
        <ele>2414.91</ele>
        <time>2017-04-28T08:52:12Z</time>
      </trkpt>
      <trkpt lat="42.72145" lon="0.08861">
        <ele>2414.44</ele>
        <time>2017-04-28T08:52:30Z</time>
      </trkpt>
      <trkpt lat="42.72145" lon="0.08864">
        <ele>2414.74</ele>
        <time>2017-04-28T08:52:44Z</time>
      </trkpt>
      <trkpt lat="42.72144" lon="0.08865">
        <ele>2415.44</ele>
        <time>2017-04-28T08:52:59Z</time>
      </trkpt>
      <trkpt lat="42.72146" lon="0.08865">
        <ele>2414.36</ele>
        <time>2017-04-28T08:53:13Z</time>
      </trkpt>
      <trkpt lat="42.72143" lon="0.08865">
        <ele>2414.22</ele>
        <time>2017-04-28T08:53:28Z</time>
      </trkpt>
      <trkpt lat="42.72136" lon="0.08866">
        <ele>2414.81</ele>
        <time>2017-04-28T08:53:41Z</time>
      </trkpt>
      <trkpt lat="42.7213" lon="0.08866">
        <ele>2416.87</ele>
        <time>2017-04-28T08:53:53Z</time>
      </trkpt>
      <trkpt lat="42.72127" lon="0.08866">
        <ele>2418</ele>
        <time>2017-04-28T08:53:57Z</time>
      </trkpt>
      <trkpt lat="42.72125" lon="0.08864">
        <ele>2417.7</ele>
        <time>2017-04-28T08:54:12Z</time>
      </trkpt>
      <trkpt lat="42.7212" lon="0.08857">
        <ele>2422.19</ele>
        <time>2017-04-28T08:54:25Z</time>
      </trkpt>
      <trkpt lat="42.72115" lon="0.08846">
        <ele>2421.55</ele>
        <time>2017-04-28T08:54:41Z</time>
      </trkpt>
      <trkpt lat="42.7211" lon="0.08843">
        <ele>2421.15</ele>
        <time>2017-04-28T08:54:56Z</time>
      </trkpt>
      <trkpt lat="42.72104" lon="0.08851">
        <ele>2423.48</ele>
        <time>2017-04-28T08:55:09Z</time>
      </trkpt>
      <trkpt lat="42.72098" lon="0.08858">
        <ele>2425.29</ele>
        <time>2017-04-28T08:55:22Z</time>
      </trkpt>
      <trkpt lat="42.72093" lon="0.08862">
        <ele>2426.91</ele>
        <time>2017-04-28T08:55:37Z</time>
      </trkpt>
      <trkpt lat="42.72089" lon="0.08853">
        <ele>2432.55</ele>
        <time>2017-04-28T08:55:51Z</time>
      </trkpt>
      <trkpt lat="42.72084" lon="0.08845">
        <ele>2435.16</ele>
        <time>2017-04-28T08:56:06Z</time>
      </trkpt>
      <trkpt lat="42.72082" lon="0.08838">
        <ele>2437.31</ele>
        <time>2017-04-28T08:56:20Z</time>
      </trkpt>
      <trkpt lat="42.72077" lon="0.08845">
        <ele>2438.58</ele>
        <time>2017-04-28T08:56:37Z</time>
      </trkpt>
      <trkpt lat="42.7207" lon="0.08853">
        <ele>2438.94</ele>
        <time>2017-04-28T08:56:52Z</time>
      </trkpt>
      <trkpt lat="42.72066" lon="0.08862">
        <ele>2440.2</ele>
        <time>2017-04-28T08:57:09Z</time>
      </trkpt>
      <trkpt lat="42.72062" lon="0.08859">
        <ele>2441.81</ele>
        <time>2017-04-28T08:57:21Z</time>
      </trkpt>
      <trkpt lat="42.7206" lon="0.08853">
        <ele>2447.03</ele>
        <time>2017-04-28T08:57:33Z</time>
      </trkpt>
      <trkpt lat="42.72056" lon="0.08847">
        <ele>2450.28</ele>
        <time>2017-04-28T08:57:49Z</time>
      </trkpt>
      <trkpt lat="42.72049" lon="0.08858">
        <ele>2453.38</ele>
        <time>2017-04-28T08:58:05Z</time>
      </trkpt>
      <trkpt lat="42.72046" lon="0.08864">
        <ele>2459.43</ele>
        <time>2017-04-28T08:58:20Z</time>
      </trkpt>
      <trkpt lat="42.72045" lon="0.08853">
        <ele>2459.15</ele>
        <time>2017-04-28T08:58:34Z</time>
      </trkpt>
      <trkpt lat="42.72043" lon="0.08845">
        <ele>2461.86</ele>
        <time>2017-04-28T08:58:49Z</time>
      </trkpt>
      <trkpt lat="42.72036" lon="0.08853">
        <ele>2462.77</ele>
        <time>2017-04-28T08:59:05Z</time>
      </trkpt>
      <trkpt lat="42.72034" lon="0.08857">
        <ele>2463.74</ele>
        <time>2017-04-28T08:59:16Z</time>
      </trkpt>
      <trkpt lat="42.72032" lon="0.08849">
        <ele>2466.58</ele>
        <time>2017-04-28T08:59:30Z</time>
      </trkpt>
      <trkpt lat="42.72033" lon="0.08837">
        <ele>2470.61</ele>
        <time>2017-04-28T08:59:43Z</time>
      </trkpt>
      <trkpt lat="42.7203" lon="0.08842">
        <ele>2473.14</ele>
        <time>2017-04-28T09:00:05Z</time>
      </trkpt>
      <trkpt lat="42.72025" lon="0.08852">
        <ele>2479.71</ele>
        <time>2017-04-28T09:00:21Z</time>
      </trkpt>
      <trkpt lat="42.72023" lon="0.08853">
        <ele>2483.73</ele>
        <time>2017-04-28T09:00:38Z</time>
      </trkpt>
      <trkpt lat="42.72018" lon="0.08844">
        <ele>2484.78</ele>
        <time>2017-04-28T09:00:55Z</time>
      </trkpt>
      <trkpt lat="42.72017" lon="0.08838">
        <ele>2484.77</ele>
        <time>2017-04-28T09:01:09Z</time>
      </trkpt>
      <trkpt lat="42.72013" lon="0.08841">
        <ele>2486.75</ele>
        <time>2017-04-28T09:01:33Z</time>
      </trkpt>
      <trkpt lat="42.72013" lon="0.08842">
        <ele>2486.14</ele>
        <time>2017-04-28T09:01:51Z</time>
      </trkpt>
      <trkpt lat="42.72008" lon="0.08848">
        <ele>2486.12</ele>
        <time>2017-04-28T09:02:11Z</time>
      </trkpt>
      <trkpt lat="42.72002" lon="0.0886">
        <ele>2485.92</ele>
        <time>2017-04-28T09:02:30Z</time>
      </trkpt>
      <trkpt lat="42.71999" lon="0.08859">
        <ele>2487.42</ele>
        <time>2017-04-28T09:02:41Z</time>
      </trkpt>
      <trkpt lat="42.71995" lon="0.08849">
        <ele>2494.19</ele>
        <time>2017-04-28T09:02:55Z</time>
      </trkpt>
      <trkpt lat="42.71994" lon="0.08836">
        <ele>2500.3</ele>
        <time>2017-04-28T09:03:12Z</time>
      </trkpt>
      <trkpt lat="42.71993" lon="0.08837">
        <ele>2500.83</ele>
        <time>2017-04-28T09:03:25Z</time>
      </trkpt>
      <trkpt lat="42.71988" lon="0.08849">
        <ele>2505.22</ele>
        <time>2017-04-28T09:03:42Z</time>
      </trkpt>
      <trkpt lat="42.71984" lon="0.08858">
        <ele>2507.57</ele>
        <time>2017-04-28T09:03:57Z</time>
      </trkpt>
      <trkpt lat="42.71983" lon="0.0886">
        <ele>2507.99</ele>
        <time>2017-04-28T09:04:10Z</time>
      </trkpt>
      <trkpt lat="42.71982" lon="0.08858">
        <ele>2508.3</ele>
        <time>2017-04-28T09:04:24Z</time>
      </trkpt>
      <trkpt lat="42.71979" lon="0.08851">
        <ele>2507.26</ele>
        <time>2017-04-28T09:04:41Z</time>
      </trkpt>
      <trkpt lat="42.71973" lon="0.08859">
        <ele>2507.24</ele>
        <time>2017-04-28T09:04:57Z</time>
      </trkpt>
      <trkpt lat="42.71971" lon="0.08873">
        <ele>2510.23</ele>
        <time>2017-04-28T09:05:15Z</time>
      </trkpt>
      <trkpt lat="42.71968" lon="0.0888">
        <ele>2514.92</ele>
        <time>2017-04-28T09:05:30Z</time>
      </trkpt>
      <trkpt lat="42.71963" lon="0.08875">
        <ele>2520.42</ele>
        <time>2017-04-28T09:05:46Z</time>
      </trkpt>
      <trkpt lat="42.71956" lon="0.08869">
        <ele>2525.3</ele>
        <time>2017-04-28T09:06:03Z</time>
      </trkpt>
      <trkpt lat="42.71951" lon="0.08875">
        <ele>2526.97</ele>
        <time>2017-04-28T09:06:18Z</time>
      </trkpt>
      <trkpt lat="42.7195" lon="0.08887">
        <ele>2526.86</ele>
        <time>2017-04-28T09:06:35Z</time>
      </trkpt>
      <trkpt lat="42.71949" lon="0.08899">
        <ele>2529.16</ele>
        <time>2017-04-28T09:06:52Z</time>
      </trkpt>
      <trkpt lat="42.71949" lon="0.089">
        <ele>2530.95</ele>
        <time>2017-04-28T09:07:07Z</time>
      </trkpt>
      <trkpt lat="42.7195" lon="0.089">
        <ele>2531.96</ele>
        <time>2017-04-28T09:07:32Z</time>
      </trkpt>
      <trkpt lat="42.71942" lon="0.08896">
        <ele>2531.89</ele>
        <time>2017-04-28T09:07:56Z</time>
      </trkpt>
      <trkpt lat="42.71934" lon="0.08889">
        <ele>2533.36</ele>
        <time>2017-04-28T09:08:15Z</time>
      </trkpt>
      <trkpt lat="42.71931" lon="0.08889">
        <ele>2533.31</ele>
        <time>2017-04-28T09:08:31Z</time>
      </trkpt>
      <trkpt lat="42.71928" lon="0.08899">
        <ele>2532.04</ele>
        <time>2017-04-28T09:08:46Z</time>
      </trkpt>
      <trkpt lat="42.71926" lon="0.08911">
        <ele>2534.09</ele>
        <time>2017-04-28T09:09:03Z</time>
      </trkpt>
      <trkpt lat="42.71921" lon="0.08905">
        <ele>2537.08</ele>
        <time>2017-04-28T09:09:17Z</time>
      </trkpt>
      <trkpt lat="42.71916" lon="0.08896">
        <ele>2541.84</ele>
        <time>2017-04-28T09:09:33Z</time>
      </trkpt>
      <trkpt lat="42.71913" lon="0.08888">
        <ele>2545.44</ele>
        <time>2017-04-28T09:09:48Z</time>
      </trkpt>
      <trkpt lat="42.71911" lon="0.08881">
        <ele>2547.25</ele>
        <time>2017-04-28T09:10:04Z</time>
      </trkpt>
      <trkpt lat="42.71911" lon="0.08881">
        <ele>2546.38</ele>
        <time>2017-04-28T09:10:28Z</time>
      </trkpt>
      <trkpt lat="42.7191" lon="0.08885">
        <ele>2546.28</ele>
        <time>2017-04-28T09:10:57Z</time>
      </trkpt>
      <trkpt lat="42.71907" lon="0.08896">
        <ele>2549.63</ele>
        <time>2017-04-28T09:11:15Z</time>
      </trkpt>
      <trkpt lat="42.71903" lon="0.08906">
        <ele>2551.02</ele>
        <time>2017-04-28T09:11:31Z</time>
      </trkpt>
      <trkpt lat="42.71899" lon="0.08907">
        <ele>2552.18</ele>
        <time>2017-04-28T09:11:47Z</time>
      </trkpt>
      <trkpt lat="42.71894" lon="0.08898">
        <ele>2554.59</ele>
        <time>2017-04-28T09:12:04Z</time>
      </trkpt>
      <trkpt lat="42.71891" lon="0.08888">
        <ele>2558.07</ele>
        <time>2017-04-28T09:12:20Z</time>
      </trkpt>
      <trkpt lat="42.71889" lon="0.08879">
        <ele>2559.91</ele>
        <time>2017-04-28T09:12:35Z</time>
      </trkpt>
      <trkpt lat="42.71885" lon="0.08868">
        <ele>2562.73</ele>
        <time>2017-04-28T09:12:53Z</time>
      </trkpt>
      <trkpt lat="42.71881" lon="0.08876">
        <ele>2563.7</ele>
        <time>2017-04-28T09:13:09Z</time>
      </trkpt>
      <trkpt lat="42.71877" lon="0.08886">
        <ele>2565.75</ele>
        <time>2017-04-28T09:13:27Z</time>
      </trkpt>
      <trkpt lat="42.71874" lon="0.08896">
        <ele>2569.44</ele>
        <time>2017-04-28T09:13:45Z</time>
      </trkpt>
      <trkpt lat="42.71874" lon="0.08895">
        <ele>2570.93</ele>
        <time>2017-04-28T09:14:02Z</time>
      </trkpt>
      <trkpt lat="42.71874" lon="0.08894">
        <ele>2572.93</ele>
        <time>2017-04-28T09:14:31Z</time>
      </trkpt>
      <trkpt lat="42.71874" lon="0.08894">
        <ele>2573.35</ele>
        <time>2017-04-28T09:15:04Z</time>
      </trkpt>
      <trkpt lat="42.71874" lon="0.08894">
        <ele>2573.12</ele>
        <time>2017-04-28T09:15:35Z</time>
      </trkpt>
      <trkpt lat="42.71873" lon="0.08894">
        <ele>2572.43</ele>
        <time>2017-04-28T09:16:01Z</time>
      </trkpt>
      <trkpt lat="42.71873" lon="0.08893">
        <ele>2572.54</ele>
        <time>2017-04-28T09:16:39Z</time>
      </trkpt>
      <trkpt lat="42.7187" lon="0.08886">
        <ele>2574.22</ele>
        <time>2017-04-28T09:17:00Z</time>
      </trkpt>
      <trkpt lat="42.71865" lon="0.08877">
        <ele>2576.68</ele>
        <time>2017-04-28T09:17:18Z</time>
      </trkpt>
      <trkpt lat="42.71859" lon="0.08868">
        <ele>2578.62</ele>
        <time>2017-04-28T09:17:36Z</time>
      </trkpt>
      <trkpt lat="42.71859" lon="0.08873">
        <ele>2578.89</ele>
        <time>2017-04-28T09:17:52Z</time>
      </trkpt>
      <trkpt lat="42.71856" lon="0.08883">
        <ele>2579.25</ele>
        <time>2017-04-28T09:18:10Z</time>
      </trkpt>
      <trkpt lat="42.71852" lon="0.08894">
        <ele>2580.93</ele>
        <time>2017-04-28T09:18:33Z</time>
      </trkpt>
      <trkpt lat="42.7185" lon="0.08893">
        <ele>2582.5</ele>
        <time>2017-04-28T09:18:49Z</time>
      </trkpt>
      <trkpt lat="42.71847" lon="0.08885">
        <ele>2585.04</ele>
        <time>2017-04-28T09:19:07Z</time>
      </trkpt>
      <trkpt lat="42.71842" lon="0.08875">
        <ele>2588.75</ele>
        <time>2017-04-28T09:19:25Z</time>
      </trkpt>
      <trkpt lat="42.71838" lon="0.08867">
        <ele>2593.08</ele>
        <time>2017-04-28T09:19:42Z</time>
      </trkpt>
      <trkpt lat="42.71835" lon="0.08864">
        <ele>2594.57</ele>
        <time>2017-04-28T09:19:58Z</time>
      </trkpt>
      <trkpt lat="42.71835" lon="0.08865">
        <ele>2594.92</ele>
        <time>2017-04-28T09:20:17Z</time>
      </trkpt>
      <trkpt lat="42.71833" lon="0.08877">
        <ele>2595.24</ele>
        <time>2017-04-28T09:20:40Z</time>
      </trkpt>
      <trkpt lat="42.71833" lon="0.08883">
        <ele>2596.25</ele>
        <time>2017-04-28T09:21:06Z</time>
      </trkpt>
      <trkpt lat="42.71829" lon="0.08894">
        <ele>2598.28</ele>
        <time>2017-04-28T09:21:27Z</time>
      </trkpt>
      <trkpt lat="42.71827" lon="0.08891">
        <ele>2600.38</ele>
        <time>2017-04-28T09:21:46Z</time>
      </trkpt>
      <trkpt lat="42.71823" lon="0.08884">
        <ele>2602.42</ele>
        <time>2017-04-28T09:22:01Z</time>
      </trkpt>
      <trkpt lat="42.7182" lon="0.08878">
        <ele>2604.1</ele>
        <time>2017-04-28T09:22:17Z</time>
      </trkpt>
      <trkpt lat="42.71817" lon="0.08874">
        <ele>2604.69</ele>
        <time>2017-04-28T09:22:33Z</time>
      </trkpt>
      <trkpt lat="42.71817" lon="0.08875">
        <ele>2604.41</ele>
        <time>2017-04-28T09:22:57Z</time>
      </trkpt>
      <trkpt lat="42.71815" lon="0.08884">
        <ele>2605.37</ele>
        <time>2017-04-28T09:23:16Z</time>
      </trkpt>
      <trkpt lat="42.71813" lon="0.08894">
        <ele>2608</ele>
        <time>2017-04-28T09:23:36Z</time>
      </trkpt>
      <trkpt lat="42.71812" lon="0.08899">
        <ele>2609.74</ele>
        <time>2017-04-28T09:23:52Z</time>
      </trkpt>
      <trkpt lat="42.71809" lon="0.08892">
        <ele>2612.96</ele>
        <time>2017-04-28T09:24:12Z</time>
      </trkpt>
      <trkpt lat="42.71805" lon="0.08884">
        <ele>2615.34</ele>
        <time>2017-04-28T09:24:29Z</time>
      </trkpt>
      <trkpt lat="42.71803" lon="0.08881">
        <ele>2617.07</ele>
        <time>2017-04-28T09:24:45Z</time>
      </trkpt>
      <trkpt lat="42.718" lon="0.08875">
        <ele>2618.48</ele>
        <time>2017-04-28T09:25:00Z</time>
      </trkpt>
      <trkpt lat="42.71799" lon="0.08874">
        <ele>2618.21</ele>
        <time>2017-04-28T09:25:16Z</time>
      </trkpt>
      <trkpt lat="42.71798" lon="0.08878">
        <ele>2618.25</ele>
        <time>2017-04-28T09:25:38Z</time>
      </trkpt>
      <trkpt lat="42.71797" lon="0.08883">
        <ele>2618.21</ele>
        <time>2017-04-28T09:25:55Z</time>
      </trkpt>
      <trkpt lat="42.71796" lon="0.08889">
        <ele>2619.13</ele>
        <time>2017-04-28T09:26:10Z</time>
      </trkpt>
      <trkpt lat="42.71796" lon="0.08896">
        <ele>2622.06</ele>
        <time>2017-04-28T09:26:30Z</time>
      </trkpt>
      <trkpt lat="42.71795" lon="0.08902">
        <ele>2624.07</ele>
        <time>2017-04-28T09:26:54Z</time>
      </trkpt>
      <trkpt lat="42.71796" lon="0.08906">
        <ele>2625.01</ele>
        <time>2017-04-28T09:27:11Z</time>
      </trkpt>
      <trkpt lat="42.71796" lon="0.08907">
        <ele>2625.04</ele>
        <time>2017-04-28T09:27:30Z</time>
      </trkpt>
      <trkpt lat="42.71792" lon="0.08903">
        <ele>2626.23</ele>
        <time>2017-04-28T09:27:55Z</time>
      </trkpt>
      <trkpt lat="42.7179" lon="0.08898">
        <ele>2628.05</ele>
        <time>2017-04-28T09:28:08Z</time>
      </trkpt>
      <trkpt lat="42.71787" lon="0.08892">
        <ele>2629.83</ele>
        <time>2017-04-28T09:28:24Z</time>
      </trkpt>
      <trkpt lat="42.71786" lon="0.08891">
        <ele>2630.99</ele>
        <time>2017-04-28T09:28:45Z</time>
      </trkpt>
      <trkpt lat="42.71787" lon="0.08892">
        <ele>2631.82</ele>
        <time>2017-04-28T09:29:03Z</time>
      </trkpt>
      <trkpt lat="42.71788" lon="0.08892">
        <ele>2631.67</ele>
        <time>2017-04-28T09:29:25Z</time>
      </trkpt>
      <trkpt lat="42.71787" lon="0.08895">
        <ele>2632.36</ele>
        <time>2017-04-28T09:29:40Z</time>
      </trkpt>
      <trkpt lat="42.71786" lon="0.089">
        <ele>2633.14</ele>
        <time>2017-04-28T09:29:57Z</time>
      </trkpt>
      <trkpt lat="42.71786" lon="0.08906">
        <ele>2634.4</ele>
        <time>2017-04-28T09:30:14Z</time>
      </trkpt>
      <trkpt lat="42.71784" lon="0.08905">
        <ele>2635.43</ele>
        <time>2017-04-28T09:30:37Z</time>
      </trkpt>
      <trkpt lat="42.71782" lon="0.08899">
        <ele>2635.88</ele>
        <time>2017-04-28T09:30:53Z</time>
      </trkpt>
      <trkpt lat="42.71781" lon="0.08896">
        <ele>2637.37</ele>
        <time>2017-04-28T09:31:07Z</time>
      </trkpt>
      <trkpt lat="42.7178" lon="0.08889">
        <ele>2638.81</ele>
        <time>2017-04-28T09:31:22Z</time>
      </trkpt>
      <trkpt lat="42.7178" lon="0.08888">
        <ele>2639.05</ele>
        <time>2017-04-28T09:31:47Z</time>
      </trkpt>
      <trkpt lat="42.71779" lon="0.08888">
        <ele>2638.9</ele>
        <time>2017-04-28T09:32:17Z</time>
      </trkpt>
      <trkpt lat="42.71779" lon="0.08889">
        <ele>2638.93</ele>
        <time>2017-04-28T09:32:43Z</time>
      </trkpt>
      <trkpt lat="42.71778" lon="0.08889">
        <ele>2639.96</ele>
        <time>2017-04-28T09:33:04Z</time>
      </trkpt>
      <trkpt lat="42.71778" lon="0.0889">
        <ele>2638.7</ele>
        <time>2017-04-28T09:33:25Z</time>
      </trkpt>
      <trkpt lat="42.71778" lon="0.0889">
        <ele>2638.46</ele>
        <time>2017-04-28T09:33:48Z</time>
      </trkpt>
      <trkpt lat="42.71777" lon="0.0889">
        <ele>2637.99</ele>
        <time>2017-04-28T09:34:11Z</time>
      </trkpt>
      <trkpt lat="42.71777" lon="0.08891">
        <ele>2637.5</ele>
        <time>2017-04-28T09:34:48Z</time>
      </trkpt>
      <trkpt lat="42.71777" lon="0.08893">
        <ele>2638.55</ele>
        <time>2017-04-28T09:35:23Z</time>
      </trkpt>
      <trkpt lat="42.71778" lon="0.08893">
        <ele>2638.18</ele>
        <time>2017-04-28T09:35:55Z</time>
      </trkpt>
      <trkpt lat="42.71777" lon="0.08894">
        <ele>2637.51</ele>
        <time>2017-04-28T09:36:21Z</time>
      </trkpt>
      <trkpt lat="42.71777" lon="0.08894">
        <ele>2635.81</ele>
        <time>2017-04-28T09:37:15Z</time>
      </trkpt>
      <trkpt lat="42.71778" lon="0.08893">
        <ele>2634.24</ele>
        <time>2017-04-28T09:37:58Z</time>
      </trkpt>
      <trkpt lat="42.71777" lon="0.08892">
        <ele>2635.92</ele>
        <time>2017-04-28T09:38:20Z</time>
      </trkpt>
      <trkpt lat="42.71777" lon="0.08893">
        <ele>2637.13</ele>
        <time>2017-04-28T09:38:37Z</time>
      </trkpt>
      <trkpt lat="42.71776" lon="0.08894">
        <ele>2637.81</ele>
        <time>2017-04-28T09:38:52Z</time>
      </trkpt>
      <trkpt lat="42.71774" lon="0.08894">
        <ele>2639.39</ele>
        <time>2017-04-28T09:39:07Z</time>
      </trkpt>
      <trkpt lat="42.71772" lon="0.08895">
        <ele>2640.35</ele>
        <time>2017-04-28T09:39:24Z</time>
      </trkpt>
      <trkpt lat="42.71771" lon="0.08896">
        <ele>2642.03</ele>
        <time>2017-04-28T09:39:50Z</time>
      </trkpt>
      <trkpt lat="42.71769" lon="0.08897">
        <ele>2642.96</ele>
        <time>2017-04-28T09:40:07Z</time>
      </trkpt>
      <trkpt lat="42.71768" lon="0.08898">
        <ele>2643.98</ele>
        <time>2017-04-28T09:40:27Z</time>
      </trkpt>
      <trkpt lat="42.71766" lon="0.08899">
        <ele>2644.82</ele>
        <time>2017-04-28T09:40:44Z</time>
      </trkpt>
      <trkpt lat="42.71763" lon="0.08899">
        <ele>2645.22</ele>
        <time>2017-04-28T09:41:00Z</time>
      </trkpt>
      <trkpt lat="42.71765" lon="0.08899">
        <ele>2646.62</ele>
        <time>2017-04-28T09:41:20Z</time>
      </trkpt>
      <trkpt lat="42.71764" lon="0.08899">
        <ele>2649.07</ele>
        <time>2017-04-28T09:41:48Z</time>
      </trkpt>
      <trkpt lat="42.71762" lon="0.089">
        <ele>2648.99</ele>
        <time>2017-04-28T09:42:05Z</time>
      </trkpt>
      <trkpt lat="42.7176" lon="0.08899">
        <ele>2650</ele>
        <time>2017-04-28T09:42:20Z</time>
      </trkpt>
      <trkpt lat="42.71758" lon="0.08899">
        <ele>2650.9</ele>
        <time>2017-04-28T09:42:39Z</time>
      </trkpt>
      <trkpt lat="42.71757" lon="0.08899">
        <ele>2651.58</ele>
        <time>2017-04-28T09:42:56Z</time>
      </trkpt>
      <trkpt lat="42.71756" lon="0.08899">
        <ele>2652.09</ele>
        <time>2017-04-28T09:43:11Z</time>
      </trkpt>
      <trkpt lat="42.71755" lon="0.08898">
        <ele>2653.28</ele>
        <time>2017-04-28T09:43:30Z</time>
      </trkpt>
      <trkpt lat="42.71753" lon="0.08898">
        <ele>2652.93</ele>
        <time>2017-04-28T09:43:47Z</time>
      </trkpt>
      <trkpt lat="42.71752" lon="0.08899">
        <ele>2653.49</ele>
        <time>2017-04-28T09:44:06Z</time>
      </trkpt>
      <trkpt lat="42.7175" lon="0.08898">
        <ele>2655.17</ele>
        <time>2017-04-28T09:44:26Z</time>
      </trkpt>
      <trkpt lat="42.71749" lon="0.08898">
        <ele>2656.27</ele>
        <time>2017-04-28T09:44:44Z</time>
      </trkpt>
      <trkpt lat="42.71747" lon="0.08897">
        <ele>2657.82</ele>
        <time>2017-04-28T09:45:05Z</time>
      </trkpt>
      <trkpt lat="42.71746" lon="0.08897">
        <ele>2659.64</ele>
        <time>2017-04-28T09:45:23Z</time>
      </trkpt>
      <trkpt lat="42.71746" lon="0.08896">
        <ele>2661.06</ele>
        <time>2017-04-28T09:45:41Z</time>
      </trkpt>
      <trkpt lat="42.71745" lon="0.08896">
        <ele>2662.5</ele>
        <time>2017-04-28T09:46:04Z</time>
      </trkpt>
      <trkpt lat="42.71745" lon="0.08896">
        <ele>2663.91</ele>
        <time>2017-04-28T09:46:27Z</time>
      </trkpt>
      <trkpt lat="42.71747" lon="0.08896">
        <ele>2666.82</ele>
        <time>2017-04-28T09:47:01Z</time>
      </trkpt>
      <trkpt lat="42.71747" lon="0.08895">
        <ele>2668.96</ele>
        <time>2017-04-28T09:47:18Z</time>
      </trkpt>
      <trkpt lat="42.71745" lon="0.08895">
        <ele>2670.51</ele>
        <time>2017-04-28T09:47:34Z</time>
      </trkpt>
      <trkpt lat="42.71745" lon="0.08894">
        <ele>2672.31</ele>
        <time>2017-04-28T09:47:59Z</time>
      </trkpt>
      <trkpt lat="42.71744" lon="0.08894">
        <ele>2672.86</ele>
        <time>2017-04-28T09:48:32Z</time>
      </trkpt>
      <trkpt lat="42.71742" lon="0.08893">
        <ele>2672.59</ele>
        <time>2017-04-28T09:48:50Z</time>
      </trkpt>
      <trkpt lat="42.7174" lon="0.08893">
        <ele>2673.06</ele>
        <time>2017-04-28T09:49:08Z</time>
      </trkpt>
      <trkpt lat="42.71739" lon="0.08892">
        <ele>2673.3</ele>
        <time>2017-04-28T09:49:29Z</time>
      </trkpt>
      <trkpt lat="42.71739" lon="0.08891">
        <ele>2675.16</ele>
        <time>2017-04-28T09:49:58Z</time>
      </trkpt>
      <trkpt lat="42.71738" lon="0.0889">
        <ele>2675.92</ele>
        <time>2017-04-28T09:50:16Z</time>
      </trkpt>
      <trkpt lat="42.71736" lon="0.0889">
        <ele>2675.88</ele>
        <time>2017-04-28T09:50:32Z</time>
      </trkpt>
      <trkpt lat="42.71736" lon="0.08891">
        <ele>2675.79</ele>
        <time>2017-04-28T09:50:49Z</time>
      </trkpt>
      <trkpt lat="42.71735" lon="0.08893">
        <ele>2677.47</ele>
        <time>2017-04-28T09:51:05Z</time>
      </trkpt>
      <trkpt lat="42.71735" lon="0.08891">
        <ele>2677.43</ele>
        <time>2017-04-28T09:51:22Z</time>
      </trkpt>
      <trkpt lat="42.71735" lon="0.0889">
        <ele>2677.6</ele>
        <time>2017-04-28T09:51:38Z</time>
      </trkpt>
      <trkpt lat="42.71734" lon="0.0889">
        <ele>2678.03</ele>
        <time>2017-04-28T09:51:54Z</time>
      </trkpt>
      <trkpt lat="42.71732" lon="0.08889">
        <ele>2678.86</ele>
        <time>2017-04-28T09:52:14Z</time>
      </trkpt>
      <trkpt lat="42.71731" lon="0.08889">
        <ele>2679.86</ele>
        <time>2017-04-28T09:52:32Z</time>
      </trkpt>
      <trkpt lat="42.71731" lon="0.08889">
        <ele>2682.93</ele>
        <time>2017-04-28T09:52:51Z</time>
      </trkpt>
      <trkpt lat="42.71731" lon="0.08888">
        <ele>2683.83</ele>
        <time>2017-04-28T09:53:09Z</time>
      </trkpt>
      <trkpt lat="42.7173" lon="0.08888">
        <ele>2684.77</ele>
        <time>2017-04-28T09:53:23Z</time>
      </trkpt>
      <trkpt lat="42.71729" lon="0.08886">
        <ele>2685.63</ele>
        <time>2017-04-28T09:53:43Z</time>
      </trkpt>
      <trkpt lat="42.7173" lon="0.08886">
        <ele>2685.63</ele>
        <time>2017-04-28T09:53:58Z</time>
      </trkpt>
      <trkpt lat="42.7173" lon="0.08886">
        <ele>2685</ele>
        <time>2017-04-28T09:54:14Z</time>
      </trkpt>
      <trkpt lat="42.71732" lon="0.08885">
        <ele>2687.08</ele>
        <time>2017-04-28T09:54:31Z</time>
      </trkpt>
      <trkpt lat="42.7173" lon="0.08885">
        <ele>2688.79</ele>
        <time>2017-04-28T09:54:47Z</time>
      </trkpt>
      <trkpt lat="42.71729" lon="0.08884">
        <ele>2691.24</ele>
        <time>2017-04-28T09:55:01Z</time>
      </trkpt>
      <trkpt lat="42.71729" lon="0.08883">
        <ele>2691.94</ele>
        <time>2017-04-28T09:55:20Z</time>
      </trkpt>
      <trkpt lat="42.71727" lon="0.08882">
        <ele>2693.24</ele>
        <time>2017-04-28T09:55:37Z</time>
      </trkpt>
      <trkpt lat="42.71725" lon="0.08881">
        <ele>2695.85</ele>
        <time>2017-04-28T09:55:55Z</time>
      </trkpt>
      <trkpt lat="42.71723" lon="0.08882">
        <ele>2697.19</ele>
        <time>2017-04-28T09:56:19Z</time>
      </trkpt>
      <trkpt lat="42.71721" lon="0.08883">
        <ele>2698.84</ele>
        <time>2017-04-28T09:56:41Z</time>
      </trkpt>
      <trkpt lat="42.7172" lon="0.08884">
        <ele>2700.59</ele>
        <time>2017-04-28T09:57:01Z</time>
      </trkpt>
      <trkpt lat="42.71716" lon="0.08887">
        <ele>2702.75</ele>
        <time>2017-04-28T09:57:24Z</time>
      </trkpt>
      <trkpt lat="42.71714" lon="0.0889">
        <ele>2703.62</ele>
        <time>2017-04-28T09:57:40Z</time>
      </trkpt>
      <trkpt lat="42.71712" lon="0.0889">
        <ele>2703.54</ele>
        <time>2017-04-28T09:58:03Z</time>
      </trkpt>
      <trkpt lat="42.71709" lon="0.08892">
        <ele>2704.56</ele>
        <time>2017-04-28T09:58:17Z</time>
      </trkpt>
      <trkpt lat="42.71707" lon="0.08894">
        <ele>2705.09</ele>
        <time>2017-04-28T09:58:34Z</time>
      </trkpt>
      <trkpt lat="42.71705" lon="0.08894">
        <ele>2705.49</ele>
        <time>2017-04-28T09:58:54Z</time>
      </trkpt>
      <trkpt lat="42.71704" lon="0.08895">
        <ele>2705.65</ele>
        <time>2017-04-28T09:59:09Z</time>
      </trkpt>
      <trkpt lat="42.71702" lon="0.08898">
        <ele>2706.34</ele>
        <time>2017-04-28T09:59:24Z</time>
      </trkpt>
      <trkpt lat="42.71701" lon="0.089">
        <ele>2707.23</ele>
        <time>2017-04-28T09:59:39Z</time>
      </trkpt>
      <trkpt lat="42.71701" lon="0.089">
        <ele>2707.66</ele>
        <time>2017-04-28T09:59:53Z</time>
      </trkpt>
      <trkpt lat="42.717" lon="0.089">
        <ele>2708.44</ele>
        <time>2017-04-28T10:00:17Z</time>
      </trkpt>
      <trkpt lat="42.71699" lon="0.08902">
        <ele>2709.14</ele>
        <time>2017-04-28T10:00:31Z</time>
      </trkpt>
      <trkpt lat="42.71699" lon="0.08904">
        <ele>2710.89</ele>
        <time>2017-04-28T10:00:53Z</time>
      </trkpt>
      <trkpt lat="42.71698" lon="0.08904">
        <ele>2711.68</ele>
        <time>2017-04-28T10:01:16Z</time>
      </trkpt>
      <trkpt lat="42.71698" lon="0.08904">
        <ele>2712.49</ele>
        <time>2017-04-28T10:01:31Z</time>
      </trkpt>
      <trkpt lat="42.71697" lon="0.08904">
        <ele>2714.32</ele>
        <time>2017-04-28T10:01:49Z</time>
      </trkpt>
      <trkpt lat="42.71696" lon="0.08905">
        <ele>2715.17</ele>
        <time>2017-04-28T10:02:04Z</time>
      </trkpt>
      <trkpt lat="42.71695" lon="0.08909">
        <ele>2714.57</ele>
        <time>2017-04-28T10:02:18Z</time>
      </trkpt>
      <trkpt lat="42.71696" lon="0.0891">
        <ele>2713.83</ele>
        <time>2017-04-28T10:02:53Z</time>
      </trkpt>
      <trkpt lat="42.71696" lon="0.0891">
        <ele>2713.8</ele>
        <time>2017-04-28T10:03:21Z</time>
      </trkpt>
      <trkpt lat="42.71695" lon="0.08911">
        <ele>2714.57</ele>
        <time>2017-04-28T10:03:40Z</time>
      </trkpt>
      <trkpt lat="42.71694" lon="0.08918">
        <ele>2715.38</ele>
        <time>2017-04-28T10:04:01Z</time>
      </trkpt>
      <trkpt lat="42.71695" lon="0.08926">
        <ele>2716.36</ele>
        <time>2017-04-28T10:04:15Z</time>
      </trkpt>
      <trkpt lat="42.71695" lon="0.08931">
        <ele>2718.13</ele>
        <time>2017-04-28T10:04:27Z</time>
      </trkpt>
      <trkpt lat="42.71695" lon="0.08942">
        <ele>2718.9</ele>
        <time>2017-04-28T10:04:41Z</time>
      </trkpt>
      <trkpt lat="42.71696" lon="0.0895">
        <ele>2718.74</ele>
        <time>2017-04-28T10:04:55Z</time>
      </trkpt>
      <trkpt lat="42.71695" lon="0.0896">
        <ele>2719.63</ele>
        <time>2017-04-28T10:05:08Z</time>
      </trkpt>
      <trkpt lat="42.71696" lon="0.08965">
        <ele>2719.73</ele>
        <time>2017-04-28T10:05:22Z</time>
      </trkpt>
      <trkpt lat="42.71696" lon="0.0897">
        <ele>2720.72</ele>
        <time>2017-04-28T10:05:37Z</time>
      </trkpt>
      <trkpt lat="42.71698" lon="0.08976">
        <ele>2721.4</ele>
        <time>2017-04-28T10:05:51Z</time>
      </trkpt>
      <trkpt lat="42.71698" lon="0.08981">
        <ele>2722.38</ele>
        <time>2017-04-28T10:06:07Z</time>
      </trkpt>
      <trkpt lat="42.71701" lon="0.08986">
        <ele>2722.2</ele>
        <time>2017-04-28T10:06:23Z</time>
      </trkpt>
      <trkpt lat="42.71702" lon="0.08988">
        <ele>2722.27</ele>
        <time>2017-04-28T10:06:41Z</time>
      </trkpt>
      <trkpt lat="42.71704" lon="0.0899">
        <ele>2722.76</ele>
        <time>2017-04-28T10:07:06Z</time>
      </trkpt>
      <trkpt lat="42.71705" lon="0.08997">
        <ele>2723.77</ele>
        <time>2017-04-28T10:07:19Z</time>
      </trkpt>
      <trkpt lat="42.71705" lon="0.09004">
        <ele>2724.6</ele>
        <time>2017-04-28T10:07:33Z</time>
      </trkpt>
      <trkpt lat="42.71706" lon="0.09009">
        <ele>2725.46</ele>
        <time>2017-04-28T10:07:51Z</time>
      </trkpt>
      <trkpt lat="42.71706" lon="0.09013">
        <ele>2726.3</ele>
        <time>2017-04-28T10:08:05Z</time>
      </trkpt>
      <trkpt lat="42.7171" lon="0.09018">
        <ele>2727.79</ele>
        <time>2017-04-28T10:08:20Z</time>
      </trkpt>
      <trkpt lat="42.71712" lon="0.09018">
        <ele>2727.67</ele>
        <time>2017-04-28T10:08:31Z</time>
      </trkpt>
      <trkpt lat="42.71711" lon="0.09018">
        <ele>2728.08</ele>
        <time>2017-04-28T10:08:55Z</time>
      </trkpt>
      <trkpt lat="42.7171" lon="0.09017">
        <ele>2727.6</ele>
        <time>2017-04-28T10:09:06Z</time>
      </trkpt>
      <trkpt lat="42.71711" lon="0.09017">
        <ele>2727.33</ele>
        <time>2017-04-28T10:09:33Z</time>
      </trkpt>
      <trkpt lat="42.7171" lon="0.09017">
        <ele>2726.78</ele>
        <time>2017-04-28T10:09:55Z</time>
      </trkpt>
      <trkpt lat="42.71709" lon="0.09017">
        <ele>2728.29</ele>
        <time>2017-04-28T10:12:11Z</time>
      </trkpt>
      <trkpt lat="42.7171" lon="0.09018">
        <ele>2728.12</ele>
        <time>2017-04-28T10:14:14Z</time>
      </trkpt>
      <trkpt lat="42.7171" lon="0.09018">
        <ele>2728.21</ele>
        <time>2017-04-28T10:16:02Z</time>
      </trkpt>
      <trkpt lat="42.7171" lon="0.09017">
        <ele>2728.46</ele>
        <time>2017-04-28T10:17:25Z</time>
      </trkpt>
      <trkpt lat="42.71709" lon="0.09017">
        <ele>2729.24</ele>
        <time>2017-04-28T10:22:00Z</time>
      </trkpt>
      <trkpt lat="42.71709" lon="0.09017">
        <ele>2728.52</ele>
        <time>2017-04-28T10:23:55Z</time>
      </trkpt>
      <trkpt lat="42.71709" lon="0.09017">
        <ele>2729.38</ele>
        <time>2017-04-28T10:26:15Z</time>
      </trkpt>
      <trkpt lat="42.71709" lon="0.09016">
        <ele>2729.47</ele>
        <time>2017-04-28T10:27:17Z</time>
      </trkpt>
      <trkpt lat="42.71709" lon="0.09017">
        <ele>2729.82</ele>
        <time>2017-04-28T10:27:46Z</time>
      </trkpt>
      <trkpt lat="42.7171" lon="0.09015">
        <ele>2729.45</ele>
        <time>2017-04-28T10:28:13Z</time>
      </trkpt>
      <trkpt lat="42.7171" lon="0.09018">
        <ele>2729.2</ele>
        <time>2017-04-28T10:28:37Z</time>
      </trkpt>
      <trkpt lat="42.7171" lon="0.09016">
        <ele>2729.15</ele>
        <time>2017-04-28T10:29:01Z</time>
      </trkpt>
      <trkpt lat="42.7171" lon="0.09016">
        <ele>2729.18</ele>
        <time>2017-04-28T10:29:38Z</time>
      </trkpt>
      <trkpt lat="42.71709" lon="0.09016">
        <ele>2729.02</ele>
        <time>2017-04-28T10:30:11Z</time>
      </trkpt>
      <trkpt lat="42.71709" lon="0.09016">
        <ele>2728.64</ele>
        <time>2017-04-28T10:30:41Z</time>
      </trkpt>
      <trkpt lat="42.71709" lon="0.09016">
        <ele>2728.54</ele>
        <time>2017-04-28T10:31:14Z</time>
      </trkpt>
      <trkpt lat="42.71709" lon="0.09016">
        <ele>2727.46</ele>
        <time>2017-04-28T10:31:43Z</time>
      </trkpt>
      <trkpt lat="42.71709" lon="0.09017">
        <ele>2726.29</ele>
        <time>2017-04-28T10:32:14Z</time>
      </trkpt>
      <trkpt lat="42.71709" lon="0.09017">
        <ele>2725.89</ele>
        <time>2017-04-28T10:32:44Z</time>
      </trkpt>
      <trkpt lat="42.71709" lon="0.09017">
        <ele>2725.29</ele>
        <time>2017-04-28T10:33:18Z</time>
      </trkpt>
      <trkpt lat="42.71709" lon="0.09017">
        <ele>2724.73</ele>
        <time>2017-04-28T10:33:45Z</time>
      </trkpt>
      <trkpt lat="42.71709" lon="0.09017">
        <ele>2724.64</ele>
        <time>2017-04-28T10:34:15Z</time>
      </trkpt>
      <trkpt lat="42.7171" lon="0.09017">
        <ele>2724.59</ele>
        <time>2017-04-28T10:34:44Z</time>
      </trkpt>
      <trkpt lat="42.7171" lon="0.09017">
        <ele>2725.26</ele>
        <time>2017-04-28T10:35:16Z</time>
      </trkpt>
      <trkpt lat="42.7171" lon="0.09018">
        <ele>2725.89</ele>
        <time>2017-04-28T10:35:50Z</time>
      </trkpt>
      <trkpt lat="42.7171" lon="0.09017">
        <ele>2725.88</ele>
        <time>2017-04-28T10:36:23Z</time>
      </trkpt>
      <trkpt lat="42.7171" lon="0.09017">
        <ele>2726.01</ele>
        <time>2017-04-28T10:36:57Z</time>
      </trkpt>
      <trkpt lat="42.7171" lon="0.09017">
        <ele>2726.32</ele>
        <time>2017-04-28T10:37:29Z</time>
      </trkpt>
      <trkpt lat="42.7171" lon="0.09017">
        <ele>2726.37</ele>
        <time>2017-04-28T10:38:01Z</time>
      </trkpt>
      <trkpt lat="42.7171" lon="0.09017">
        <ele>2726.29</ele>
        <time>2017-04-28T10:38:29Z</time>
      </trkpt>
      <trkpt lat="42.71709" lon="0.09017">
        <ele>2726.33</ele>
        <time>2017-04-28T10:39:01Z</time>
      </trkpt>
      <trkpt lat="42.7171" lon="0.09018">
        <ele>2726.1</ele>
        <time>2017-04-28T10:39:31Z</time>
      </trkpt>
      <trkpt lat="42.71709" lon="0.09018">
        <ele>2725.95</ele>
        <time>2017-04-28T10:40:02Z</time>
      </trkpt>
      <trkpt lat="42.7171" lon="0.09018">
        <ele>2725.91</ele>
        <time>2017-04-28T10:40:34Z</time>
      </trkpt>
      <trkpt lat="42.71709" lon="0.09018">
        <ele>2726.18</ele>
        <time>2017-04-28T10:41:05Z</time>
      </trkpt>
      <trkpt lat="42.71709" lon="0.09018">
        <ele>2726.5</ele>
        <time>2017-04-28T10:41:36Z</time>
      </trkpt>
      <trkpt lat="42.7171" lon="0.09017">
        <ele>2726.41</ele>
        <time>2017-04-28T10:42:08Z</time>
      </trkpt>
      <trkpt lat="42.7171" lon="0.09017">
        <ele>2726.21</ele>
        <time>2017-04-28T10:42:39Z</time>
      </trkpt>
      <trkpt lat="42.7171" lon="0.09017">
        <ele>2726.44</ele>
        <time>2017-04-28T10:43:09Z</time>
      </trkpt>
      <trkpt lat="42.7171" lon="0.09017">
        <ele>2725.87</ele>
        <time>2017-04-28T10:43:38Z</time>
      </trkpt>
      <trkpt lat="42.7171" lon="0.09017">
        <ele>2725.73</ele>
        <time>2017-04-28T10:44:09Z</time>
      </trkpt>
      <trkpt lat="42.7171" lon="0.09017">
        <ele>2725.63</ele>
        <time>2017-04-28T10:44:40Z</time>
      </trkpt>
      <trkpt lat="42.7171" lon="0.09017">
        <ele>2725.57</ele>
        <time>2017-04-28T10:45:12Z</time>
      </trkpt>
      <trkpt lat="42.7171" lon="0.09017">
        <ele>2725.44</ele>
        <time>2017-04-28T10:45:42Z</time>
      </trkpt>
      <trkpt lat="42.7171" lon="0.09017">
        <ele>2725.51</ele>
        <time>2017-04-28T10:46:15Z</time>
      </trkpt>
      <trkpt lat="42.7171" lon="0.09017">
        <ele>2725.68</ele>
        <time>2017-04-28T10:46:50Z</time>
      </trkpt>
      <trkpt lat="42.7171" lon="0.09017">
        <ele>2725.38</ele>
        <time>2017-04-28T10:47:22Z</time>
      </trkpt>
      <trkpt lat="42.7171" lon="0.09018">
        <ele>2725.24</ele>
        <time>2017-04-28T10:47:52Z</time>
      </trkpt>
      <trkpt lat="42.71711" lon="0.09018">
        <ele>2725.46</ele>
        <time>2017-04-28T10:48:23Z</time>
      </trkpt>
      <trkpt lat="42.71711" lon="0.09018">
        <ele>2725.94</ele>
        <time>2017-04-28T10:48:56Z</time>
      </trkpt>
      <trkpt lat="42.71711" lon="0.09018">
        <ele>2726.12</ele>
        <time>2017-04-28T10:49:27Z</time>
      </trkpt>
      <trkpt lat="42.71711" lon="0.09018">
        <ele>2726.26</ele>
        <time>2017-04-28T10:50:03Z</time>
      </trkpt>
      <trkpt lat="42.7171" lon="0.09017">
        <ele>2726.25</ele>
        <time>2017-04-28T10:50:33Z</time>
      </trkpt>
      <trkpt lat="42.7171" lon="0.09017">
        <ele>2726.18</ele>
        <time>2017-04-28T10:51:04Z</time>
      </trkpt>
      <trkpt lat="42.7171" lon="0.09017">
        <ele>2726.35</ele>
        <time>2017-04-28T10:51:36Z</time>
      </trkpt>
      <trkpt lat="42.7171" lon="0.09017">
        <ele>2726.46</ele>
        <time>2017-04-28T10:52:09Z</time>
      </trkpt>
      <trkpt lat="42.7171" lon="0.09017">
        <ele>2726.42</ele>
        <time>2017-04-28T10:52:41Z</time>
      </trkpt>
      <trkpt lat="42.7171" lon="0.09017">
        <ele>2726.41</ele>
        <time>2017-04-28T10:53:15Z</time>
      </trkpt>
      <trkpt lat="42.7171" lon="0.09017">
        <ele>2726.32</ele>
        <time>2017-04-28T10:53:49Z</time>
      </trkpt>
      <trkpt lat="42.7171" lon="0.09016">
        <ele>2725.92</ele>
        <time>2017-04-28T10:54:20Z</time>
      </trkpt>
      <trkpt lat="42.7171" lon="0.09016">
        <ele>2726.44</ele>
        <time>2017-04-28T10:54:51Z</time>
      </trkpt>
      <trkpt lat="42.71709" lon="0.09017">
        <ele>2726.32</ele>
        <time>2017-04-28T10:55:23Z</time>
      </trkpt>
      <trkpt lat="42.7171" lon="0.09017">
        <ele>2726.04</ele>
        <time>2017-04-28T10:55:55Z</time>
      </trkpt>
      <trkpt lat="42.7171" lon="0.09017">
        <ele>2726.32</ele>
        <time>2017-04-28T10:56:32Z</time>
      </trkpt>
      <trkpt lat="42.7171" lon="0.09017">
        <ele>2726.24</ele>
        <time>2017-04-28T10:57:08Z</time>
      </trkpt>
      <trkpt lat="42.7171" lon="0.09017">
        <ele>2726.04</ele>
        <time>2017-04-28T10:57:39Z</time>
      </trkpt>
      <trkpt lat="42.7171" lon="0.09017">
        <ele>2726.24</ele>
        <time>2017-04-28T10:58:13Z</time>
      </trkpt>
      <trkpt lat="42.7171" lon="0.09017">
        <ele>2726.43</ele>
        <time>2017-04-28T10:58:51Z</time>
      </trkpt>
      <trkpt lat="42.7171" lon="0.09017">
        <ele>2726.36</ele>
        <time>2017-04-28T10:59:27Z</time>
      </trkpt>
      <trkpt lat="42.7171" lon="0.09017">
        <ele>2726.1</ele>
        <time>2017-04-28T11:00:01Z</time>
      </trkpt>
      <trkpt lat="42.7171" lon="0.09017">
        <ele>2725.54</ele>
        <time>2017-04-28T11:00:34Z</time>
      </trkpt>
      <trkpt lat="42.7171" lon="0.09017">
        <ele>2725.56</ele>
        <time>2017-04-28T11:01:09Z</time>
      </trkpt>
      <trkpt lat="42.7171" lon="0.09017">
        <ele>2725.58</ele>
        <time>2017-04-28T11:01:42Z</time>
      </trkpt>
      <trkpt lat="42.71709" lon="0.09017">
        <ele>2725.44</ele>
        <time>2017-04-28T11:02:21Z</time>
      </trkpt>
      <trkpt lat="42.71709" lon="0.09017">
        <ele>2725.09</ele>
        <time>2017-04-28T11:02:56Z</time>
      </trkpt>
      <trkpt lat="42.71709" lon="0.09017">
        <ele>2724.42</ele>
        <time>2017-04-28T11:03:34Z</time>
      </trkpt>
      <trkpt lat="42.71709" lon="0.09017">
        <ele>2724.37</ele>
        <time>2017-04-28T11:04:08Z</time>
      </trkpt>
      <trkpt lat="42.71709" lon="0.09017">
        <ele>2724.58</ele>
        <time>2017-04-28T11:04:40Z</time>
      </trkpt>
      <trkpt lat="42.71709" lon="0.09017">
        <ele>2724.45</ele>
        <time>2017-04-28T11:05:17Z</time>
      </trkpt>
      <trkpt lat="42.7171" lon="0.09017">
        <ele>2724.42</ele>
        <time>2017-04-28T11:05:51Z</time>
      </trkpt>
      <trkpt lat="42.71709" lon="0.09019">
        <ele>2725.01</ele>
        <time>2017-04-28T11:06:15Z</time>
      </trkpt>
      <trkpt lat="42.7171" lon="0.09019">
        <ele>2724.25</ele>
        <time>2017-04-28T11:06:38Z</time>
      </trkpt>
      <trkpt lat="42.7171" lon="0.09019">
        <ele>2724.03</ele>
        <time>2017-04-28T11:07:04Z</time>
      </trkpt>
      <trkpt lat="42.7171" lon="0.09018">
        <ele>2724.22</ele>
        <time>2017-04-28T11:07:27Z</time>
      </trkpt>
      <trkpt lat="42.71709" lon="0.09018">
        <ele>2723.52</ele>
        <time>2017-04-28T11:07:52Z</time>
      </trkpt>
      <trkpt lat="42.71709" lon="0.09018">
        <ele>2723.06</ele>
        <time>2017-04-28T11:08:11Z</time>
      </trkpt>
      <trkpt lat="42.71709" lon="0.09018">
        <ele>2723.72</ele>
        <time>2017-04-28T11:08:38Z</time>
      </trkpt>
      <trkpt lat="42.7171" lon="0.09018">
        <ele>2723.93</ele>
        <time>2017-04-28T11:08:57Z</time>
      </trkpt>
      <trkpt lat="42.7171" lon="0.09018">
        <ele>2724.1</ele>
        <time>2017-04-28T11:09:15Z</time>
      </trkpt>
      <trkpt lat="42.7171" lon="0.09019">
        <ele>2725</ele>
        <time>2017-04-28T11:09:42Z</time>
      </trkpt>
      <trkpt lat="42.7171" lon="0.09019">
        <ele>2725.29</ele>
        <time>2017-04-28T11:10:16Z</time>
      </trkpt>
      <trkpt lat="42.7171" lon="0.09021">
        <ele>2724.96</ele>
        <time>2017-04-28T11:10:36Z</time>
      </trkpt>
      <trkpt lat="42.7171" lon="0.09021">
        <ele>2726.42</ele>
        <time>2017-04-28T11:11:01Z</time>
      </trkpt>
      <trkpt lat="42.7171" lon="0.09021">
        <ele>2727.1</ele>
        <time>2017-04-28T11:11:21Z</time>
      </trkpt>
      <trkpt lat="42.71709" lon="0.09018">
        <ele>2727.7</ele>
        <time>2017-04-28T11:11:36Z</time>
      </trkpt>
      <trkpt lat="42.71711" lon="0.0902">
        <ele>2727.26</ele>
        <time>2017-04-28T11:11:51Z</time>
      </trkpt>
      <trkpt lat="42.7171" lon="0.09022">
        <ele>2725.94</ele>
        <time>2017-04-28T11:12:14Z</time>
      </trkpt>
      <trkpt lat="42.71714" lon="0.09021">
        <ele>2725.17</ele>
        <time>2017-04-28T11:12:26Z</time>
      </trkpt>
      <trkpt lat="42.71716" lon="0.0902">
        <ele>2725.34</ele>
        <time>2017-04-28T11:12:41Z</time>
      </trkpt>
      <trkpt lat="42.71717" lon="0.0902">
        <ele>2725.35</ele>
        <time>2017-04-28T11:13:06Z</time>
      </trkpt>
      <trkpt lat="42.71717" lon="0.0902">
        <ele>2724.45</ele>
        <time>2017-04-28T11:13:24Z</time>
      </trkpt>
      <trkpt lat="42.71719" lon="0.09019">
        <ele>2723.39</ele>
        <time>2017-04-28T11:13:41Z</time>
      </trkpt>
      <trkpt lat="42.71721" lon="0.09021">
        <ele>2721.89</ele>
        <time>2017-04-28T11:13:58Z</time>
      </trkpt>
      <trkpt lat="42.71727" lon="0.09023">
        <ele>2719.01</ele>
        <time>2017-04-28T11:14:15Z</time>
      </trkpt>
      <trkpt lat="42.71728" lon="0.09023">
        <ele>2718.89</ele>
        <time>2017-04-28T11:14:29Z</time>
      </trkpt>
      <trkpt lat="42.7173" lon="0.09024">
        <ele>2718.77</ele>
        <time>2017-04-28T11:14:46Z</time>
      </trkpt>
      <trkpt lat="42.71732" lon="0.09025">
        <ele>2717.19</ele>
        <time>2017-04-28T11:15:02Z</time>
      </trkpt>
      <trkpt lat="42.71729" lon="0.09023">
        <ele>2717.42</ele>
        <time>2017-04-28T11:15:32Z</time>
      </trkpt>
      <trkpt lat="42.71725" lon="0.09022">
        <ele>2718.58</ele>
        <time>2017-04-28T11:15:52Z</time>
      </trkpt>
      <trkpt lat="42.71718" lon="0.09019">
        <ele>2722.21</ele>
        <time>2017-04-28T11:16:08Z</time>
      </trkpt>
      <trkpt lat="42.71713" lon="0.09021">
        <ele>2724.9</ele>
        <time>2017-04-28T11:16:25Z</time>
      </trkpt>
      <trkpt lat="42.7171" lon="0.0902">
        <ele>2725.79</ele>
        <time>2017-04-28T11:16:38Z</time>
      </trkpt>
      <trkpt lat="42.71708" lon="0.09017">
        <ele>2724.25</ele>
        <time>2017-04-28T11:16:55Z</time>
      </trkpt>
      <trkpt lat="42.71705" lon="0.09011">
        <ele>2723.42</ele>
        <time>2017-04-28T11:17:07Z</time>
      </trkpt>
      <trkpt lat="42.71705" lon="0.09004">
        <ele>2722.29</ele>
        <time>2017-04-28T11:17:20Z</time>
      </trkpt>
      <trkpt lat="42.71701" lon="0.08993">
        <ele>2720.36</ele>
        <time>2017-04-28T11:17:36Z</time>
      </trkpt>
      <trkpt lat="42.71699" lon="0.08984">
        <ele>2718.22</ele>
        <time>2017-04-28T11:17:48Z</time>
      </trkpt>
      <trkpt lat="42.71698" lon="0.08974">
        <ele>2715.88</ele>
        <time>2017-04-28T11:18:02Z</time>
      </trkpt>
      <trkpt lat="42.71695" lon="0.08966">
        <ele>2715.08</ele>
        <time>2017-04-28T11:18:12Z</time>
      </trkpt>
      <trkpt lat="42.71695" lon="0.08955">
        <ele>2713.84</ele>
        <time>2017-04-28T11:18:29Z</time>
      </trkpt>
      <trkpt lat="42.71694" lon="0.08951">
        <ele>2714.25</ele>
        <time>2017-04-28T11:18:33Z</time>
      </trkpt>
      <trkpt lat="42.71694" lon="0.08944">
        <ele>2715.58</ele>
        <time>2017-04-28T11:18:49Z</time>
      </trkpt>
      <trkpt lat="42.71694" lon="0.08934">
        <ele>2715.66</ele>
        <time>2017-04-28T11:19:02Z</time>
      </trkpt>
      <trkpt lat="42.71693" lon="0.08921">
        <ele>2712.53</ele>
        <time>2017-04-28T11:19:19Z</time>
      </trkpt>
      <trkpt lat="42.71693" lon="0.08917">
        <ele>2711.81</ele>
        <time>2017-04-28T11:19:26Z</time>
      </trkpt>
      <trkpt lat="42.71695" lon="0.08906">
        <ele>2712.13</ele>
        <time>2017-04-28T11:19:42Z</time>
      </trkpt>
      <trkpt lat="42.71694" lon="0.08896">
        <ele>2712.52</ele>
        <time>2017-04-28T11:19:58Z</time>
      </trkpt>
      <trkpt lat="42.71695" lon="0.08895">
        <ele>2712.75</ele>
        <time>2017-04-28T11:20:13Z</time>
      </trkpt>
      <trkpt lat="42.71692" lon="0.0888">
        <ele>2709.75</ele>
        <time>2017-04-28T11:20:27Z</time>
      </trkpt>
      <trkpt lat="42.71684" lon="0.08871">
        <ele>2705.96</ele>
        <time>2017-04-28T11:20:43Z</time>
      </trkpt>
      <trkpt lat="42.71675" lon="0.08858">
        <ele>2701.95</ele>
        <time>2017-04-28T11:21:00Z</time>
      </trkpt>
      <trkpt lat="42.71669" lon="0.08844">
        <ele>2698.38</ele>
        <time>2017-04-28T11:21:16Z</time>
      </trkpt>
      <trkpt lat="42.71669" lon="0.08843">
        <ele>2698.34</ele>
        <time>2017-04-28T11:21:17Z</time>
      </trkpt>
      <trkpt lat="42.71665" lon="0.08829">
        <ele>2697.84</ele>
        <time>2017-04-28T11:21:33Z</time>
      </trkpt>
      <trkpt lat="42.71661" lon="0.08819">
        <ele>2695.22</ele>
        <time>2017-04-28T11:21:48Z</time>
      </trkpt>
      <trkpt lat="42.71659" lon="0.0881">
        <ele>2693.72</ele>
        <time>2017-04-28T11:22:01Z</time>
      </trkpt>
      <trkpt lat="42.71657" lon="0.08803">
        <ele>2692.27</ele>
        <time>2017-04-28T11:22:11Z</time>
      </trkpt>
      <trkpt lat="42.71657" lon="0.0879">
        <ele>2690.04</ele>
        <time>2017-04-28T11:22:28Z</time>
      </trkpt>
      <trkpt lat="42.71654" lon="0.08783">
        <ele>2687.88</ele>
        <time>2017-04-28T11:22:40Z</time>
      </trkpt>
      <trkpt lat="42.7165" lon="0.08779">
        <ele>2687.71</ele>
        <time>2017-04-28T11:22:53Z</time>
      </trkpt>
      <trkpt lat="42.7165" lon="0.08779">
        <ele>2687.03</ele>
        <time>2017-04-28T11:23:08Z</time>
      </trkpt>
      <trkpt lat="42.71651" lon="0.0878">
        <ele>2687.35</ele>
        <time>2017-04-28T11:24:42Z</time>
      </trkpt>
      <trkpt lat="42.71651" lon="0.0878">
        <ele>2687.05</ele>
        <time>2017-04-28T11:25:52Z</time>
      </trkpt>
      <trkpt lat="42.7165" lon="0.0878">
        <ele>2687.65</ele>
        <time>2017-04-28T11:27:20Z</time>
      </trkpt>
      <trkpt lat="42.7165" lon="0.0878">
        <ele>2686.56</ele>
        <time>2017-04-28T11:28:42Z</time>
      </trkpt>
      <trkpt lat="42.7165" lon="0.08779">
        <ele>2686.92</ele>
        <time>2017-04-28T11:28:56Z</time>
      </trkpt>
      <trkpt lat="42.71649" lon="0.08778">
        <ele>2687.19</ele>
        <time>2017-04-28T11:29:14Z</time>
      </trkpt>
      <trkpt lat="42.71649" lon="0.08779">
        <ele>2688.08</ele>
        <time>2017-04-28T11:29:37Z</time>
      </trkpt>
      <trkpt lat="42.71649" lon="0.08779">
        <ele>2688.51</ele>
        <time>2017-04-28T11:30:14Z</time>
      </trkpt>
      <trkpt lat="42.71649" lon="0.08777">
        <ele>2689.04</ele>
        <time>2017-04-28T11:30:48Z</time>
      </trkpt>
      <trkpt lat="42.7165" lon="0.08777">
        <ele>2689.07</ele>
        <time>2017-04-28T11:31:05Z</time>
      </trkpt>
      <trkpt lat="42.7165" lon="0.08776">
        <ele>2688.87</ele>
        <time>2017-04-28T11:31:28Z</time>
      </trkpt>
      <trkpt lat="42.71651" lon="0.08776">
        <ele>2688.59</ele>
        <time>2017-04-28T11:31:49Z</time>
      </trkpt>
      <trkpt lat="42.71649" lon="0.08776">
        <ele>2689.69</ele>
        <time>2017-04-28T11:32:12Z</time>
      </trkpt>
      <trkpt lat="42.71649" lon="0.08776">
        <ele>2690.73</ele>
        <time>2017-04-28T11:32:38Z</time>
      </trkpt>
      <trkpt lat="42.71649" lon="0.08775">
        <ele>2690.6</ele>
        <time>2017-04-28T11:33:06Z</time>
      </trkpt>
      <trkpt lat="42.71649" lon="0.08775">
        <ele>2689.85</ele>
        <time>2017-04-28T11:33:31Z</time>
      </trkpt>
      <trkpt lat="42.7165" lon="0.08774">
        <ele>2690.12</ele>
        <time>2017-04-28T11:34:01Z</time>
      </trkpt>
      <trkpt lat="42.7165" lon="0.08771">
        <ele>2689.69</ele>
        <time>2017-04-28T11:34:04Z</time>
      </trkpt>
      <trkpt lat="42.71649" lon="0.08762">
        <ele>2688.94</ele>
        <time>2017-04-28T11:34:08Z</time>
      </trkpt>
      <trkpt lat="42.71647" lon="0.08752">
        <ele>2688.05</ele>
        <time>2017-04-28T11:34:11Z</time>
      </trkpt>
      <trkpt lat="42.71646" lon="0.087">
        <ele>2681.52</ele>
        <time>2017-04-28T11:34:22Z</time>
      </trkpt>
      <trkpt lat="42.7165" lon="0.0867">
        <ele>2678.45</ele>
        <time>2017-04-28T11:34:32Z</time>
      </trkpt>
      <trkpt lat="42.71651" lon="0.0867">
        <ele>2677.81</ele>
        <time>2017-04-28T11:34:52Z</time>
      </trkpt>
      <trkpt lat="42.71655" lon="0.08666">
        <ele>2676.82</ele>
        <time>2017-04-28T11:34:54Z</time>
      </trkpt>
      <trkpt lat="42.71679" lon="0.08669">
        <ele>2668.58</ele>
        <time>2017-04-28T11:35:00Z</time>
      </trkpt>
      <trkpt lat="42.71687" lon="0.08679">
        <ele>2664.22</ele>
        <time>2017-04-28T11:35:04Z</time>
      </trkpt>
      <trkpt lat="42.71687" lon="0.08681">
        <ele>2662.55</ele>
        <time>2017-04-28T11:35:06Z</time>
      </trkpt>
      <trkpt lat="42.71694" lon="0.08676">
        <ele>2659.03</ele>
        <time>2017-04-28T11:35:09Z</time>
      </trkpt>
      <trkpt lat="42.7171" lon="0.0865">
        <ele>2655.62</ele>
        <time>2017-04-28T11:35:19Z</time>
      </trkpt>
      <trkpt lat="42.71709" lon="0.08654">
        <ele>2652.3</ele>
        <time>2017-04-28T11:35:33Z</time>
      </trkpt>
      <trkpt lat="42.71709" lon="0.08656">
        <ele>2649.9</ele>
        <time>2017-04-28T11:35:55Z</time>
      </trkpt>
      <trkpt lat="42.71709" lon="0.08661">
        <ele>2648.42</ele>
        <time>2017-04-28T11:36:01Z</time>
      </trkpt>
      <trkpt lat="42.71707" lon="0.08688">
        <ele>2646.53</ele>
        <time>2017-04-28T11:36:07Z</time>
      </trkpt>
      <trkpt lat="42.71728" lon="0.08707">
        <ele>2639.06</ele>
        <time>2017-04-28T11:36:13Z</time>
      </trkpt>
      <trkpt lat="42.71734" lon="0.0871">
        <ele>2637</ele>
        <time>2017-04-28T11:36:14Z</time>
      </trkpt>
      <trkpt lat="42.71764" lon="0.08704">
        <ele>2629.77</ele>
        <time>2017-04-28T11:36:21Z</time>
      </trkpt>
      <trkpt lat="42.7176" lon="0.08706">
        <ele>2625.77</ele>
        <time>2017-04-28T11:36:42Z</time>
      </trkpt>
      <trkpt lat="42.71761" lon="0.08708">
        <ele>2625.21</ele>
        <time>2017-04-28T11:36:50Z</time>
      </trkpt>
      <trkpt lat="42.71764" lon="0.08716">
        <ele>2624.71</ele>
        <time>2017-04-28T11:36:52Z</time>
      </trkpt>
      <trkpt lat="42.71773" lon="0.08744">
        <ele>2621.98</ele>
        <time>2017-04-28T11:36:56Z</time>
      </trkpt>
      <trkpt lat="42.7179" lon="0.0879">
        <ele>2615.32</ele>
        <time>2017-04-28T11:37:08Z</time>
      </trkpt>
      <trkpt lat="42.71808" lon="0.08829">
        <ele>2607.37</ele>
        <time>2017-04-28T11:37:19Z</time>
      </trkpt>
      <trkpt lat="42.71828" lon="0.08887">
        <ele>2596.23</ele>
        <time>2017-04-28T11:37:32Z</time>
      </trkpt>
      <trkpt lat="42.71832" lon="0.08899">
        <ele>2594.64</ele>
        <time>2017-04-28T11:37:41Z</time>
      </trkpt>
      <trkpt lat="42.71833" lon="0.08899">
        <ele>2594.63</ele>
        <time>2017-04-28T11:37:45Z</time>
      </trkpt>
      <trkpt lat="42.71854" lon="0.08909">
        <ele>2588.11</ele>
        <time>2017-04-28T11:37:51Z</time>
      </trkpt>
      <trkpt lat="42.71868" lon="0.08914">
        <ele>2578.5</ele>
        <time>2017-04-28T11:37:55Z</time>
      </trkpt>
      <trkpt lat="42.71894" lon="0.08937">
        <ele>2565.19</ele>
        <time>2017-04-28T11:38:03Z</time>
      </trkpt>
      <trkpt lat="42.71909" lon="0.08926">
        <ele>2552.51</ele>
        <time>2017-04-28T11:38:08Z</time>
      </trkpt>
      <trkpt lat="42.71926" lon="0.08924">
        <ele>2543.23</ele>
        <time>2017-04-28T11:38:13Z</time>
      </trkpt>
      <trkpt lat="42.71943" lon="0.08912">
        <ele>2529.37</ele>
        <time>2017-04-28T11:38:18Z</time>
      </trkpt>
      <trkpt lat="42.71963" lon="0.08891">
        <ele>2517.71</ele>
        <time>2017-04-28T11:38:23Z</time>
      </trkpt>
      <trkpt lat="42.71983" lon="0.08885">
        <ele>2506.66</ele>
        <time>2017-04-28T11:38:28Z</time>
      </trkpt>
      <trkpt lat="42.72" lon="0.08873">
        <ele>2495.77</ele>
        <time>2017-04-28T11:38:33Z</time>
      </trkpt>
      <trkpt lat="42.72022" lon="0.08864">
        <ele>2482.94</ele>
        <time>2017-04-28T11:38:39Z</time>
      </trkpt>
      <trkpt lat="42.72035" lon="0.08864">
        <ele>2474.28</ele>
        <time>2017-04-28T11:38:43Z</time>
      </trkpt>
      <trkpt lat="42.72053" lon="0.08869">
        <ele>2463.24</ele>
        <time>2017-04-28T11:38:48Z</time>
      </trkpt>
      <trkpt lat="42.72075" lon="0.08883">
        <ele>2455.69</ele>
        <time>2017-04-28T11:38:55Z</time>
      </trkpt>
      <trkpt lat="42.72092" lon="0.08876">
        <ele>2443.79</ele>
        <time>2017-04-28T11:38:59Z</time>
      </trkpt>
      <trkpt lat="42.72102" lon="0.0887">
        <ele>2438.05</ele>
        <time>2017-04-28T11:39:01Z</time>
      </trkpt>
      <trkpt lat="42.72125" lon="0.08867">
        <ele>2427.82</ele>
        <time>2017-04-28T11:39:05Z</time>
      </trkpt>
      <trkpt lat="42.72144" lon="0.08864">
        <ele>2423.81</ele>
        <time>2017-04-28T11:39:10Z</time>
      </trkpt>
      <trkpt lat="42.72143" lon="0.08862">
        <ele>2423.96</ele>
        <time>2017-04-28T11:39:30Z</time>
      </trkpt>
      <trkpt lat="42.72141" lon="0.08862">
        <ele>2419.98</ele>
        <time>2017-04-28T11:39:54Z</time>
      </trkpt>
      <trkpt lat="42.72142" lon="0.08864">
        <ele>2419.55</ele>
        <time>2017-04-28T11:40:20Z</time>
      </trkpt>
      <trkpt lat="42.72142" lon="0.08864">
        <ele>2418.78</ele>
        <time>2017-04-28T11:40:52Z</time>
      </trkpt>
      <trkpt lat="42.72143" lon="0.08863">
        <ele>2418.56</ele>
        <time>2017-04-28T11:41:25Z</time>
      </trkpt>
      <trkpt lat="42.72143" lon="0.08863">
        <ele>2418.43</ele>
        <time>2017-04-28T11:41:28Z</time>
      </trkpt>
      <trkpt lat="42.72149" lon="0.08861">
        <ele>2417.58</ele>
        <time>2017-04-28T11:41:31Z</time>
      </trkpt>
      <trkpt lat="42.72161" lon="0.08856">
        <ele>2413.88</ele>
        <time>2017-04-28T11:41:34Z</time>
      </trkpt>
      <trkpt lat="42.72184" lon="0.08835">
        <ele>2411.1</ele>
        <time>2017-04-28T11:41:43Z</time>
      </trkpt>
      <trkpt lat="42.72187" lon="0.08833">
        <ele>2410.38</ele>
        <time>2017-04-28T11:41:44Z</time>
      </trkpt>
      <trkpt lat="42.72195" lon="0.08837">
        <ele>2407.11</ele>
        <time>2017-04-28T11:41:46Z</time>
      </trkpt>
      <trkpt lat="42.72212" lon="0.08841">
        <ele>2400.3</ele>
        <time>2017-04-28T11:41:51Z</time>
      </trkpt>
      <trkpt lat="42.72241" lon="0.08858">
        <ele>2383.97</ele>
        <time>2017-04-28T11:41:59Z</time>
      </trkpt>
      <trkpt lat="42.72256" lon="0.08856">
        <ele>2374.06</ele>
        <time>2017-04-28T11:42:04Z</time>
      </trkpt>
      <trkpt lat="42.72273" lon="0.08859">
        <ele>2360.88</ele>
        <time>2017-04-28T11:42:09Z</time>
      </trkpt>
      <trkpt lat="42.7228" lon="0.08867">
        <ele>2359.48</ele>
        <time>2017-04-28T11:42:14Z</time>
      </trkpt>
      <trkpt lat="42.72283" lon="0.08851">
        <ele>2350.17</ele>
        <time>2017-04-28T11:42:23Z</time>
      </trkpt>
      <trkpt lat="42.72284" lon="0.08849">
        <ele>2348.74</ele>
        <time>2017-04-28T11:42:29Z</time>
      </trkpt>
      <trkpt lat="42.72296" lon="0.08852">
        <ele>2343.58</ele>
        <time>2017-04-28T11:42:35Z</time>
      </trkpt>
      <trkpt lat="42.72307" lon="0.08852">
        <ele>2340.11</ele>
        <time>2017-04-28T11:42:40Z</time>
      </trkpt>
      <trkpt lat="42.72312" lon="0.08861">
        <ele>2335.03</ele>
        <time>2017-04-28T11:42:43Z</time>
      </trkpt>
      <trkpt lat="42.72328" lon="0.08878">
        <ele>2326.47</ele>
        <time>2017-04-28T11:42:49Z</time>
      </trkpt>
      <trkpt lat="42.72329" lon="0.08877">
        <ele>2323.98</ele>
        <time>2017-04-28T11:42:58Z</time>
      </trkpt>
      <trkpt lat="42.72329" lon="0.08876">
        <ele>2322.36</ele>
        <time>2017-04-28T11:43:04Z</time>
      </trkpt>
      <trkpt lat="42.72332" lon="0.08887">
        <ele>2320.27</ele>
        <time>2017-04-28T11:43:08Z</time>
      </trkpt>
      <trkpt lat="42.72349" lon="0.08923">
        <ele>2309.43</ele>
        <time>2017-04-28T11:43:21Z</time>
      </trkpt>
      <trkpt lat="42.72368" lon="0.08949">
        <ele>2300.75</ele>
        <time>2017-04-28T11:43:30Z</time>
      </trkpt>
      <trkpt lat="42.7237" lon="0.08954">
        <ele>2298.81</ele>
        <time>2017-04-28T11:43:32Z</time>
      </trkpt>
      <trkpt lat="42.72372" lon="0.08961">
        <ele>2295.12</ele>
        <time>2017-04-28T11:43:36Z</time>
      </trkpt>
      <trkpt lat="42.72386" lon="0.08957">
        <ele>2285.17</ele>
        <time>2017-04-28T11:43:43Z</time>
      </trkpt>
      <trkpt lat="42.72398" lon="0.08969">
        <ele>2279.75</ele>
        <time>2017-04-28T11:43:49Z</time>
      </trkpt>
      <trkpt lat="42.72407" lon="0.08964">
        <ele>2273.75</ele>
        <time>2017-04-28T11:43:54Z</time>
      </trkpt>
      <trkpt lat="42.72427" lon="0.08959">
        <ele>2267.18</ele>
        <time>2017-04-28T11:43:59Z</time>
      </trkpt>
      <trkpt lat="42.72433" lon="0.08963">
        <ele>2262.91</ele>
        <time>2017-04-28T11:44:01Z</time>
      </trkpt>
      <trkpt lat="42.72454" lon="0.08957">
        <ele>2250.32</ele>
        <time>2017-04-28T11:44:08Z</time>
      </trkpt>
      <trkpt lat="42.72456" lon="0.08958">
        <ele>2247.63</ele>
        <time>2017-04-28T11:44:09Z</time>
      </trkpt>
      <trkpt lat="42.72471" lon="0.08967">
        <ele>2230.29</ele>
        <time>2017-04-28T11:44:16Z</time>
      </trkpt>
      <trkpt lat="42.72484" lon="0.08972">
        <ele>2218.84</ele>
        <time>2017-04-28T11:44:20Z</time>
      </trkpt>
      <trkpt lat="42.72499" lon="0.08986">
        <ele>2204.91</ele>
        <time>2017-04-28T11:44:25Z</time>
      </trkpt>
      <trkpt lat="42.72513" lon="0.08991">
        <ele>2196.87</ele>
        <time>2017-04-28T11:44:29Z</time>
      </trkpt>
      <trkpt lat="42.72518" lon="0.08982">
        <ele>2193.51</ele>
        <time>2017-04-28T11:44:36Z</time>
      </trkpt>
      <trkpt lat="42.72518" lon="0.0898">
        <ele>2192.37</ele>
        <time>2017-04-28T11:44:45Z</time>
      </trkpt>
      <trkpt lat="42.7252" lon="0.08976">
        <ele>2192.03</ele>
        <time>2017-04-28T11:44:47Z</time>
      </trkpt>
      <trkpt lat="42.72523" lon="0.08963">
        <ele>2190.64</ele>
        <time>2017-04-28T11:44:58Z</time>
      </trkpt>
      <trkpt lat="42.7252" lon="0.08962">
        <ele>2187.51</ele>
        <time>2017-04-28T11:45:28Z</time>
      </trkpt>
      <trkpt lat="42.72519" lon="0.08962">
        <ele>2186.33</ele>
        <time>2017-04-28T11:45:56Z</time>
      </trkpt>
      <trkpt lat="42.72534" lon="0.08965">
        <ele>2182.24</ele>
        <time>2017-04-28T11:46:02Z</time>
      </trkpt>
      <trkpt lat="42.72549" lon="0.0896">
        <ele>2170.31</ele>
        <time>2017-04-28T11:46:07Z</time>
      </trkpt>
      <trkpt lat="42.7255" lon="0.08943">
        <ele>2166.12</ele>
        <time>2017-04-28T11:46:12Z</time>
      </trkpt>
      <trkpt lat="42.72554" lon="0.08914">
        <ele>2162.35</ele>
        <time>2017-04-28T11:46:17Z</time>
      </trkpt>
      <trkpt lat="42.72559" lon="0.08904">
        <ele>2161.48</ele>
        <time>2017-04-28T11:46:19Z</time>
      </trkpt>
      <trkpt lat="42.72574" lon="0.08877">
        <ele>2155.2</ele>
        <time>2017-04-28T11:46:26Z</time>
      </trkpt>
      <trkpt lat="42.72584" lon="0.08889">
        <ele>2145.35</ele>
        <time>2017-04-28T11:46:32Z</time>
      </trkpt>
      <trkpt lat="42.72594" lon="0.08895">
        <ele>2136.78</ele>
        <time>2017-04-28T11:46:37Z</time>
      </trkpt>
      <trkpt lat="42.72607" lon="0.08895">
        <ele>2129.89</ele>
        <time>2017-04-28T11:46:42Z</time>
      </trkpt>
      <trkpt lat="42.72621" lon="0.08899">
        <ele>2122.48</ele>
        <time>2017-04-28T11:46:46Z</time>
      </trkpt>
      <trkpt lat="42.72633" lon="0.089">
        <ele>2113.39</ele>
        <time>2017-04-28T11:46:51Z</time>
      </trkpt>
      <trkpt lat="42.72641" lon="0.08895">
        <ele>2109.95</ele>
        <time>2017-04-28T11:46:53Z</time>
      </trkpt>
      <trkpt lat="42.72656" lon="0.08865">
        <ele>2102.27</ele>
        <time>2017-04-28T11:47:03Z</time>
      </trkpt>
      <trkpt lat="42.72654" lon="0.08864">
        <ele>2099.92</ele>
        <time>2017-04-28T11:47:16Z</time>
      </trkpt>
      <trkpt lat="42.72654" lon="0.08864">
        <ele>2097.11</ele>
        <time>2017-04-28T11:47:43Z</time>
      </trkpt>
      <trkpt lat="42.72654" lon="0.08863">
        <ele>2095.56</ele>
        <time>2017-04-28T11:48:05Z</time>
      </trkpt>
      <trkpt lat="42.72669" lon="0.08865">
        <ele>2087.05</ele>
        <time>2017-04-28T11:48:12Z</time>
      </trkpt>
      <trkpt lat="42.72677" lon="0.08863">
        <ele>2081.16</ele>
        <time>2017-04-28T11:48:16Z</time>
      </trkpt>
      <trkpt lat="42.72693" lon="0.08848">
        <ele>2071.64</ele>
        <time>2017-04-28T11:48:22Z</time>
      </trkpt>
      <trkpt lat="42.72699" lon="0.08846">
        <ele>2067.34</ele>
        <time>2017-04-28T11:48:24Z</time>
      </trkpt>
      <trkpt lat="42.7272" lon="0.08838">
        <ele>2055.77</ele>
        <time>2017-04-28T11:48:30Z</time>
      </trkpt>
      <trkpt lat="42.7273" lon="0.0883">
        <ele>2048.49</ele>
        <time>2017-04-28T11:48:35Z</time>
      </trkpt>
      <trkpt lat="42.72731" lon="0.08834">
        <ele>2047.15</ele>
        <time>2017-04-28T11:48:37Z</time>
      </trkpt>
      <trkpt lat="42.72741" lon="0.08842">
        <ele>2040.27</ele>
        <time>2017-04-28T11:48:45Z</time>
      </trkpt>
      <trkpt lat="42.72746" lon="0.08843">
        <ele>2036.57</ele>
        <time>2017-04-28T11:48:48Z</time>
      </trkpt>
      <trkpt lat="42.72753" lon="0.08835">
        <ele>2031.22</ele>
        <time>2017-04-28T11:48:53Z</time>
      </trkpt>
      <trkpt lat="42.72761" lon="0.0882">
        <ele>2024.98</ele>
        <time>2017-04-28T11:49:04Z</time>
      </trkpt>
      <trkpt lat="42.72772" lon="0.08817">
        <ele>2018.78</ele>
        <time>2017-04-28T11:49:11Z</time>
      </trkpt>
      <trkpt lat="42.7278" lon="0.08812">
        <ele>2010.22</ele>
        <time>2017-04-28T11:49:18Z</time>
      </trkpt>
      <trkpt lat="42.72786" lon="0.08794">
        <ele>2003.56</ele>
        <time>2017-04-28T11:49:24Z</time>
      </trkpt>
      <trkpt lat="42.72779" lon="0.08773">
        <ele>1998.86</ele>
        <time>2017-04-28T11:49:27Z</time>
      </trkpt>
      <trkpt lat="42.72771" lon="0.08741">
        <ele>1993.66</ele>
        <time>2017-04-28T11:49:32Z</time>
      </trkpt>
      <trkpt lat="42.72773" lon="0.08723">
        <ele>1993.23</ele>
        <time>2017-04-28T11:49:37Z</time>
      </trkpt>
      <trkpt lat="42.72792" lon="0.08717">
        <ele>1986.3</ele>
        <time>2017-04-28T11:49:42Z</time>
      </trkpt>
      <trkpt lat="42.72812" lon="0.08714">
        <ele>1975</ele>
        <time>2017-04-28T11:49:46Z</time>
      </trkpt>
      <trkpt lat="42.72835" lon="0.08729">
        <ele>1968.74</ele>
        <time>2017-04-28T11:49:50Z</time>
      </trkpt>
      <trkpt lat="42.7285" lon="0.08736">
        <ele>1967.43</ele>
        <time>2017-04-28T11:49:53Z</time>
      </trkpt>
      <trkpt lat="42.7288" lon="0.08755">
        <ele>1963.14</ele>
        <time>2017-04-28T11:50:02Z</time>
      </trkpt>
      <trkpt lat="42.72889" lon="0.08752">
        <ele>1960.34</ele>
        <time>2017-04-28T11:50:04Z</time>
      </trkpt>
      <trkpt lat="42.72928" lon="0.08738">
        <ele>1950.72</ele>
        <time>2017-04-28T11:50:10Z</time>
      </trkpt>
      <trkpt lat="42.72933" lon="0.08734">
        <ele>1948.92</ele>
        <time>2017-04-28T11:50:11Z</time>
      </trkpt>
      <trkpt lat="42.72969" lon="0.08703">
        <ele>1933.28</ele>
        <time>2017-04-28T11:50:18Z</time>
      </trkpt>
      <trkpt lat="42.72975" lon="0.08702">
        <ele>1931.55</ele>
        <time>2017-04-28T11:50:19Z</time>
      </trkpt>
      <trkpt lat="42.72992" lon="0.08706">
        <ele>1923.23</ele>
        <time>2017-04-28T11:50:22Z</time>
      </trkpt>
      <trkpt lat="42.73011" lon="0.08693">
        <ele>1918.72</ele>
        <time>2017-04-28T11:50:26Z</time>
      </trkpt>
      <trkpt lat="42.73022" lon="0.08686">
        <ele>1914.5</ele>
        <time>2017-04-28T11:50:32Z</time>
      </trkpt>
      <trkpt lat="42.73021" lon="0.08688">
        <ele>1910.93</ele>
        <time>2017-04-28T11:51:03Z</time>
      </trkpt>
      <trkpt lat="42.7302" lon="0.08689">
        <ele>1909.95</ele>
        <time>2017-04-28T11:51:32Z</time>
      </trkpt>
      <trkpt lat="42.7302" lon="0.08689">
        <ele>1909.65</ele>
        <time>2017-04-28T11:52:04Z</time>
      </trkpt>
      <trkpt lat="42.7302" lon="0.0869">
        <ele>1910.09</ele>
        <time>2017-04-28T11:52:08Z</time>
      </trkpt>
      <trkpt lat="42.73048" lon="0.08692">
        <ele>1905.13</ele>
        <time>2017-04-28T11:52:15Z</time>
      </trkpt>
      <trkpt lat="42.73067" lon="0.08707">
        <ele>1900.75</ele>
        <time>2017-04-28T11:52:19Z</time>
      </trkpt>
      <trkpt lat="42.73077" lon="0.08724">
        <ele>1901.1</ele>
        <time>2017-04-28T11:52:29Z</time>
      </trkpt>
      <trkpt lat="42.73077" lon="0.08723">
        <ele>1900.71</ele>
        <time>2017-04-28T11:52:53Z</time>
      </trkpt>
      <trkpt lat="42.73077" lon="0.08723">
        <ele>1900.48</ele>
        <time>2017-04-28T11:53:11Z</time>
      </trkpt>
      <trkpt lat="42.73077" lon="0.08723">
        <ele>1899.82</ele>
        <time>2017-04-28T11:53:28Z</time>
      </trkpt>
      <trkpt lat="42.73078" lon="0.08724">
        <ele>1899.89</ele>
        <time>2017-04-28T11:53:42Z</time>
      </trkpt>
      <trkpt lat="42.73078" lon="0.08724">
        <ele>1899.64</ele>
        <time>2017-04-28T11:54:04Z</time>
      </trkpt>
      <trkpt lat="42.73078" lon="0.08724">
        <ele>1899.43</ele>
        <time>2017-04-28T11:54:35Z</time>
      </trkpt>
      <trkpt lat="42.73078" lon="0.08723">
        <ele>1899.14</ele>
        <time>2017-04-28T11:54:54Z</time>
      </trkpt>
      <trkpt lat="42.73077" lon="0.08723">
        <ele>1899.92</ele>
        <time>2017-04-28T11:55:04Z</time>
      </trkpt>
      <trkpt lat="42.73077" lon="0.08719">
        <ele>1899.77</ele>
        <time>2017-04-28T11:55:07Z</time>
      </trkpt>
      <trkpt lat="42.73077" lon="0.08709">
        <ele>1899.17</ele>
        <time>2017-04-28T11:55:12Z</time>
      </trkpt>
      <trkpt lat="42.73083" lon="0.08705">
        <ele>1899.34</ele>
        <time>2017-04-28T11:55:22Z</time>
      </trkpt>
      <trkpt lat="42.73086" lon="0.08706">
        <ele>1899.21</ele>
        <time>2017-04-28T11:55:24Z</time>
      </trkpt>
      <trkpt lat="42.73091" lon="0.08706">
        <ele>1899.48</ele>
        <time>2017-04-28T11:55:28Z</time>
      </trkpt>
      <trkpt lat="42.73119" lon="0.08717">
        <ele>1899.52</ele>
        <time>2017-04-28T11:55:49Z</time>
      </trkpt>
      <trkpt lat="42.73144" lon="0.08729">
        <ele>1893.69</ele>
        <time>2017-04-28T11:56:10Z</time>
      </trkpt>
      <trkpt lat="42.7316" lon="0.08753">
        <ele>1891.25</ele>
        <time>2017-04-28T11:56:29Z</time>
      </trkpt>
      <trkpt lat="42.73167" lon="0.08771">
        <ele>1886.37</ele>
        <time>2017-04-28T11:56:42Z</time>
      </trkpt>
      <trkpt lat="42.73185" lon="0.08785">
        <ele>1881.21</ele>
        <time>2017-04-28T11:56:59Z</time>
      </trkpt>
      <trkpt lat="42.73205" lon="0.08792">
        <ele>1880.1</ele>
        <time>2017-04-28T11:57:16Z</time>
      </trkpt>
      <trkpt lat="42.73226" lon="0.08795">
        <ele>1880.07</ele>
        <time>2017-04-28T11:57:33Z</time>
      </trkpt>
      <trkpt lat="42.73245" lon="0.08814">
        <ele>1875.57</ele>
        <time>2017-04-28T11:57:52Z</time>
      </trkpt>
      <trkpt lat="42.73259" lon="0.08827">
        <ele>1874.22</ele>
        <time>2017-04-28T11:58:06Z</time>
      </trkpt>
      <trkpt lat="42.73279" lon="0.08842">
        <ele>1871.82</ele>
        <time>2017-04-28T11:58:24Z</time>
      </trkpt>
      <trkpt lat="42.73291" lon="0.08848">
        <ele>1869.5</ele>
        <time>2017-04-28T11:58:34Z</time>
      </trkpt>
      <trkpt lat="42.73292" lon="0.0885">
        <ele>1868.83</ele>
        <time>2017-04-28T11:58:36Z</time>
      </trkpt>
      <trkpt lat="42.73312" lon="0.08867">
        <ele>1860.26</ele>
        <time>2017-04-28T11:58:54Z</time>
      </trkpt>
      <trkpt lat="42.73325" lon="0.08881">
        <ele>1856.86</ele>
        <time>2017-04-28T11:59:07Z</time>
      </trkpt>
      <trkpt lat="42.7333" lon="0.08887">
        <ele>1857.83</ele>
        <time>2017-04-28T11:59:11Z</time>
      </trkpt>
      <trkpt lat="42.73345" lon="0.08899">
        <ele>1857.29</ele>
        <time>2017-04-28T11:59:25Z</time>
      </trkpt>
      <trkpt lat="42.73355" lon="0.08913">
        <ele>1854.25</ele>
        <time>2017-04-28T11:59:39Z</time>
      </trkpt>
      <trkpt lat="42.7337" lon="0.08927">
        <ele>1854.01</ele>
        <time>2017-04-28T11:59:56Z</time>
      </trkpt>
      <trkpt lat="42.73385" lon="0.08943">
        <ele>1852.95</ele>
        <time>2017-04-28T12:00:13Z</time>
      </trkpt>
      <trkpt lat="42.73396" lon="0.08956">
        <ele>1853.25</ele>
        <time>2017-04-28T12:00:28Z</time>
      </trkpt>
      <trkpt lat="42.73413" lon="0.08969">
        <ele>1862.2</ele>
        <time>2017-04-28T12:00:43Z</time>
      </trkpt>
      <trkpt lat="42.73432" lon="0.08982">
        <ele>1859.95</ele>
        <time>2017-04-28T12:00:58Z</time>
      </trkpt>
      <trkpt lat="42.73446" lon="0.08989">
        <ele>1857.09</ele>
        <time>2017-04-28T12:01:11Z</time>
      </trkpt>
      <trkpt lat="42.73451" lon="0.08985">
        <ele>1857.33</ele>
        <time>2017-04-28T12:01:27Z</time>
      </trkpt>
      <trkpt lat="42.73451" lon="0.08986">
        <ele>1857.23</ele>
        <time>2017-04-28T12:01:34Z</time>
      </trkpt>
      <trkpt lat="42.73452" lon="0.08986">
        <ele>1857.12</ele>
        <time>2017-04-28T12:01:36Z</time>
      </trkpt>
      <trkpt lat="42.73452" lon="0.08984">
        <ele>1855.19</ele>
        <time>2017-04-28T12:01:50Z</time>
      </trkpt>
      <trkpt lat="42.7345" lon="0.08985">
        <ele>1853.47</ele>
        <time>2017-04-28T12:02:14Z</time>
      </trkpt>
      <trkpt lat="42.73451" lon="0.08984">
        <ele>1852.68</ele>
        <time>2017-04-28T12:02:27Z</time>
      </trkpt>
      <trkpt lat="42.73454" lon="0.08985">
        <ele>1850.58</ele>
        <time>2017-04-28T12:02:55Z</time>
      </trkpt>
      <trkpt lat="42.73455" lon="0.08983">
        <ele>1851.22</ele>
        <time>2017-04-28T12:03:01Z</time>
      </trkpt>
    </trkseg>
  </trk>
</gpx>